<?xml version="1.0" encoding="UTF-8" standalone="no" ?>
<gpx xmlns="http://www.topografix.com/GPX/1/1" xmlns:xsi="http://www.w3.org/2001/XMLSchema-instance" xsi:schemaLocation="http://www.topografix.com/GPX/1/1 http://www.topografix.com/GPX/1/1/gpx.xsd" version="1.1" creator="VisuGPX - https://www.visugpx.com">
  <metadata>
    <name>pic des 3 seigneurs-2020-05-22-155627</name>
    <desc><![CDATA[[b][i][url][img][/img][/url][/i][/b]]]></desc>
  </metadata>
  <trk>
    <name><![CDATA[MA-Rando-2020-05-22-155627]]></name>
    <trkseg>
      <trkpt lat="42.80647" lon="1.41145">
        <ele>1519</ele>
        <time>2020-05-22T07:05:11Z</time>
      </trkpt>
      <trkpt lat="42.80654" lon="1.41152">
        <ele>1517</ele>
        <time>2020-05-22T07:05:21Z</time>
      </trkpt>
      <trkpt lat="42.80663" lon="1.41159">
        <ele>1520</ele>
        <time>2020-05-22T07:05:31Z</time>
      </trkpt>
      <trkpt lat="42.80671" lon="1.41165">
        <ele>1520</ele>
        <time>2020-05-22T07:05:41Z</time>
      </trkpt>
      <trkpt lat="42.8068" lon="1.41171">
        <ele>1520</ele>
        <time>2020-05-22T07:05:51Z</time>
      </trkpt>
      <trkpt lat="42.8069" lon="1.41173">
        <ele>1521</ele>
        <time>2020-05-22T07:06:02Z</time>
      </trkpt>
      <trkpt lat="42.80699" lon="1.41176">
        <ele>1520</ele>
        <time>2020-05-22T07:06:16Z</time>
      </trkpt>
      <trkpt lat="42.80709" lon="1.41179">
        <ele>1521</ele>
        <time>2020-05-22T07:06:31Z</time>
      </trkpt>
      <trkpt lat="42.80722" lon="1.41176">
        <ele>1523</ele>
        <time>2020-05-22T07:06:53Z</time>
      </trkpt>
      <trkpt lat="42.8073" lon="1.41184">
        <ele>1522</ele>
        <time>2020-05-22T07:07:10Z</time>
      </trkpt>
      <trkpt lat="42.80739" lon="1.41187">
        <ele>1524</ele>
        <time>2020-05-22T07:07:29Z</time>
      </trkpt>
      <trkpt lat="42.80749" lon="1.41189">
        <ele>1525</ele>
        <time>2020-05-22T07:07:53Z</time>
      </trkpt>
      <trkpt lat="42.80758" lon="1.4119">
        <ele>1534</ele>
        <time>2020-05-22T07:08:17Z</time>
      </trkpt>
      <trkpt lat="42.80768" lon="1.41196">
        <ele>1546</ele>
        <time>2020-05-22T07:08:52Z</time>
      </trkpt>
      <trkpt lat="42.80781" lon="1.412">
        <ele>1545</ele>
        <time>2020-05-22T07:09:30Z</time>
      </trkpt>
      <trkpt lat="42.80789" lon="1.41207">
        <ele>1553</ele>
        <time>2020-05-22T07:09:48Z</time>
      </trkpt>
      <trkpt lat="42.80802" lon="1.41203">
        <ele>1565</ele>
        <time>2020-05-22T07:10:24Z</time>
      </trkpt>
      <trkpt lat="42.80811" lon="1.41204">
        <ele>1568</ele>
        <time>2020-05-22T07:10:37Z</time>
      </trkpt>
      <trkpt lat="42.80821" lon="1.41206">
        <ele>1564</ele>
        <time>2020-05-22T07:10:51Z</time>
      </trkpt>
      <trkpt lat="42.80833" lon="1.41207">
        <ele>1574</ele>
        <time>2020-05-22T07:11:15Z</time>
      </trkpt>
      <trkpt lat="42.80842" lon="1.41213">
        <ele>1582</ele>
        <time>2020-05-22T07:11:34Z</time>
      </trkpt>
      <trkpt lat="42.80851" lon="1.41215">
        <ele>1583</ele>
        <time>2020-05-22T07:11:49Z</time>
      </trkpt>
      <trkpt lat="42.8086" lon="1.41213">
        <ele>1589</ele>
        <time>2020-05-22T07:12:04Z</time>
      </trkpt>
      <trkpt lat="42.8087" lon="1.41211">
        <ele>1595</ele>
        <time>2020-05-22T07:12:20Z</time>
      </trkpt>
      <trkpt lat="42.80875" lon="1.41226">
        <ele>1596</ele>
        <time>2020-05-22T07:12:35Z</time>
      </trkpt>
      <trkpt lat="42.80884" lon="1.4122">
        <ele>1596</ele>
        <time>2020-05-22T07:12:50Z</time>
      </trkpt>
      <trkpt lat="42.80889" lon="1.41231">
        <ele>1598</ele>
        <time>2020-05-22T07:13:01Z</time>
      </trkpt>
      <trkpt lat="42.80899" lon="1.41238">
        <ele>1604</ele>
        <time>2020-05-22T07:13:20Z</time>
      </trkpt>
      <trkpt lat="42.80906" lon="1.41245">
        <ele>1602</ele>
        <time>2020-05-22T07:13:38Z</time>
      </trkpt>
      <trkpt lat="42.80913" lon="1.41253">
        <ele>1606</ele>
        <time>2020-05-22T07:13:56Z</time>
      </trkpt>
      <trkpt lat="42.80919" lon="1.41263">
        <ele>1617</ele>
        <time>2020-05-22T07:14:10Z</time>
      </trkpt>
      <trkpt lat="42.80926" lon="1.41272">
        <ele>1617</ele>
        <time>2020-05-22T07:14:29Z</time>
      </trkpt>
      <trkpt lat="42.80938" lon="1.41278">
        <ele>1615</ele>
        <time>2020-05-22T07:14:49Z</time>
      </trkpt>
      <trkpt lat="42.80948" lon="1.41286">
        <ele>1620</ele>
        <time>2020-05-22T07:15:03Z</time>
      </trkpt>
      <trkpt lat="42.80961" lon="1.4129">
        <ele>1621</ele>
        <time>2020-05-22T07:15:21Z</time>
      </trkpt>
      <trkpt lat="42.80968" lon="1.41298">
        <ele>1623</ele>
        <time>2020-05-22T07:15:36Z</time>
      </trkpt>
      <trkpt lat="42.80971" lon="1.41309">
        <ele>1626</ele>
        <time>2020-05-22T07:15:46Z</time>
      </trkpt>
      <trkpt lat="42.80975" lon="1.41323">
        <ele>1631</ele>
        <time>2020-05-22T07:16:01Z</time>
      </trkpt>
      <trkpt lat="42.80982" lon="1.41332">
        <ele>1629</ele>
        <time>2020-05-22T07:16:15Z</time>
      </trkpt>
      <trkpt lat="42.80988" lon="1.41343">
        <ele>1631</ele>
        <time>2020-05-22T07:16:29Z</time>
      </trkpt>
      <trkpt lat="42.80995" lon="1.41352">
        <ele>1634</ele>
        <time>2020-05-22T07:16:42Z</time>
      </trkpt>
      <trkpt lat="42.81001" lon="1.41362">
        <ele>1637</ele>
        <time>2020-05-22T07:16:58Z</time>
      </trkpt>
      <trkpt lat="42.81008" lon="1.4137">
        <ele>1643</ele>
        <time>2020-05-22T07:17:16Z</time>
      </trkpt>
      <trkpt lat="42.81017" lon="1.41378">
        <ele>1643</ele>
        <time>2020-05-22T07:17:30Z</time>
      </trkpt>
      <trkpt lat="42.81024" lon="1.41394">
        <ele>1653</ele>
        <time>2020-05-22T07:18:03Z</time>
      </trkpt>
      <trkpt lat="42.81032" lon="1.41408">
        <ele>1659</ele>
        <time>2020-05-22T07:19:54Z</time>
      </trkpt>
      <trkpt lat="42.81041" lon="1.41402">
        <ele>1661</ele>
        <time>2020-05-22T07:20:06Z</time>
      </trkpt>
      <trkpt lat="42.8105" lon="1.41397">
        <ele>1660</ele>
        <time>2020-05-22T07:20:23Z</time>
      </trkpt>
      <trkpt lat="42.81058" lon="1.41391">
        <ele>1659</ele>
        <time>2020-05-22T07:20:34Z</time>
      </trkpt>
      <trkpt lat="42.81068" lon="1.41388">
        <ele>1664</ele>
        <time>2020-05-22T07:20:50Z</time>
      </trkpt>
      <trkpt lat="42.81078" lon="1.41389">
        <ele>1671</ele>
        <time>2020-05-22T07:21:18Z</time>
      </trkpt>
      <trkpt lat="42.81088" lon="1.41378">
        <ele>1677</ele>
        <time>2020-05-22T07:21:41Z</time>
      </trkpt>
      <trkpt lat="42.81097" lon="1.41382">
        <ele>1677</ele>
        <time>2020-05-22T07:22:05Z</time>
      </trkpt>
      <trkpt lat="42.81103" lon="1.41372">
        <ele>1677</ele>
        <time>2020-05-22T07:22:22Z</time>
      </trkpt>
      <trkpt lat="42.81112" lon="1.4138">
        <ele>1688</ele>
        <time>2020-05-22T07:22:38Z</time>
      </trkpt>
      <trkpt lat="42.81122" lon="1.4138">
        <ele>1690</ele>
        <time>2020-05-22T07:22:55Z</time>
      </trkpt>
      <trkpt lat="42.81131" lon="1.41382">
        <ele>1695</ele>
        <time>2020-05-22T07:23:13Z</time>
      </trkpt>
      <trkpt lat="42.81141" lon="1.41379">
        <ele>1696</ele>
        <time>2020-05-22T07:23:27Z</time>
      </trkpt>
      <trkpt lat="42.81151" lon="1.41376">
        <ele>1697</ele>
        <time>2020-05-22T07:23:40Z</time>
      </trkpt>
      <trkpt lat="42.8116" lon="1.41379">
        <ele>1702</ele>
        <time>2020-05-22T07:23:58Z</time>
      </trkpt>
      <trkpt lat="42.81169" lon="1.41375">
        <ele>1708</ele>
        <time>2020-05-22T07:24:32Z</time>
      </trkpt>
      <trkpt lat="42.81179" lon="1.41372">
        <ele>1709</ele>
        <time>2020-05-22T07:24:58Z</time>
      </trkpt>
      <trkpt lat="42.81187" lon="1.41363">
        <ele>1715</ele>
        <time>2020-05-22T07:25:24Z</time>
      </trkpt>
      <trkpt lat="42.81197" lon="1.41362">
        <ele>1724</ele>
        <time>2020-05-22T07:25:49Z</time>
      </trkpt>
      <trkpt lat="42.81206" lon="1.41358">
        <ele>1724</ele>
        <time>2020-05-22T07:26:05Z</time>
      </trkpt>
      <trkpt lat="42.81214" lon="1.41363">
        <ele>1730</ele>
        <time>2020-05-22T07:26:21Z</time>
      </trkpt>
      <trkpt lat="42.81223" lon="1.4136">
        <ele>1727</ele>
        <time>2020-05-22T07:26:34Z</time>
      </trkpt>
      <trkpt lat="42.81231" lon="1.41367">
        <ele>1733</ele>
        <time>2020-05-22T07:29:04Z</time>
      </trkpt>
      <trkpt lat="42.81244" lon="1.41363">
        <ele>1737</ele>
        <time>2020-05-22T07:29:26Z</time>
      </trkpt>
      <trkpt lat="42.81253" lon="1.41367">
        <ele>1744</ele>
        <time>2020-05-22T07:29:46Z</time>
      </trkpt>
      <trkpt lat="42.81262" lon="1.41367">
        <ele>1743</ele>
        <time>2020-05-22T07:30:08Z</time>
      </trkpt>
      <trkpt lat="42.81271" lon="1.4137">
        <ele>1752</ele>
        <time>2020-05-22T07:30:34Z</time>
      </trkpt>
      <trkpt lat="42.8128" lon="1.41367">
        <ele>1756</ele>
        <time>2020-05-22T07:30:52Z</time>
      </trkpt>
      <trkpt lat="42.81292" lon="1.41374">
        <ele>1761</ele>
        <time>2020-05-22T07:31:23Z</time>
      </trkpt>
      <trkpt lat="42.81304" lon="1.41376">
        <ele>1765</ele>
        <time>2020-05-22T07:31:56Z</time>
      </trkpt>
      <trkpt lat="42.81317" lon="1.41379">
        <ele>1770</ele>
        <time>2020-05-22T07:32:28Z</time>
      </trkpt>
      <trkpt lat="42.81327" lon="1.41378">
        <ele>1768</ele>
        <time>2020-05-22T07:32:51Z</time>
      </trkpt>
      <trkpt lat="42.81336" lon="1.41382">
        <ele>1774</ele>
        <time>2020-05-22T07:33:14Z</time>
      </trkpt>
      <trkpt lat="42.81345" lon="1.41386">
        <ele>1781</ele>
        <time>2020-05-22T07:33:39Z</time>
      </trkpt>
      <trkpt lat="42.81355" lon="1.41387">
        <ele>1783</ele>
        <time>2020-05-22T07:34:02Z</time>
      </trkpt>
      <trkpt lat="42.81363" lon="1.4139">
        <ele>1783</ele>
        <time>2020-05-22T07:34:17Z</time>
      </trkpt>
      <trkpt lat="42.81371" lon="1.41397">
        <ele>1788</ele>
        <time>2020-05-22T07:34:35Z</time>
      </trkpt>
      <trkpt lat="42.81379" lon="1.41404">
        <ele>1796</ele>
        <time>2020-05-22T07:35:01Z</time>
      </trkpt>
      <trkpt lat="42.81389" lon="1.41406">
        <ele>1799</ele>
        <time>2020-05-22T07:35:23Z</time>
      </trkpt>
      <trkpt lat="42.81397" lon="1.41411">
        <ele>1801</ele>
        <time>2020-05-22T07:35:39Z</time>
      </trkpt>
      <trkpt lat="42.81409" lon="1.41416">
        <ele>1811</ele>
        <time>2020-05-22T07:36:13Z</time>
      </trkpt>
      <trkpt lat="42.81418" lon="1.41419">
        <ele>1811</ele>
        <time>2020-05-22T07:36:30Z</time>
      </trkpt>
      <trkpt lat="42.81431" lon="1.41424">
        <ele>1815</ele>
        <time>2020-05-22T07:37:01Z</time>
      </trkpt>
      <trkpt lat="42.81442" lon="1.4143">
        <ele>1822</ele>
        <time>2020-05-22T07:37:35Z</time>
      </trkpt>
      <trkpt lat="42.8145" lon="1.41444">
        <ele>1826</ele>
        <time>2020-05-22T07:38:02Z</time>
      </trkpt>
      <trkpt lat="42.81453" lon="1.41456">
        <ele>1831</ele>
        <time>2020-05-22T07:38:20Z</time>
      </trkpt>
      <trkpt lat="42.81457" lon="1.41468">
        <ele>1834</ele>
        <time>2020-05-22T07:38:34Z</time>
      </trkpt>
      <trkpt lat="42.81464" lon="1.41477">
        <ele>1838</ele>
        <time>2020-05-22T07:38:55Z</time>
      </trkpt>
      <trkpt lat="42.81472" lon="1.41483">
        <ele>1841</ele>
        <time>2020-05-22T07:39:13Z</time>
      </trkpt>
      <trkpt lat="42.81476" lon="1.41495">
        <ele>1846</ele>
        <time>2020-05-22T07:39:29Z</time>
      </trkpt>
      <trkpt lat="42.81483" lon="1.41503">
        <ele>1848</ele>
        <time>2020-05-22T07:39:52Z</time>
      </trkpt>
      <trkpt lat="42.81491" lon="1.4151">
        <ele>1854</ele>
        <time>2020-05-22T07:40:13Z</time>
      </trkpt>
      <trkpt lat="42.81496" lon="1.41527">
        <ele>1855</ele>
        <time>2020-05-22T07:40:40Z</time>
      </trkpt>
      <trkpt lat="42.81502" lon="1.41537">
        <ele>1860</ele>
        <time>2020-05-22T07:41:01Z</time>
      </trkpt>
      <trkpt lat="42.81511" lon="1.41542">
        <ele>1868</ele>
        <time>2020-05-22T07:41:47Z</time>
      </trkpt>
      <trkpt lat="42.81517" lon="1.41552">
        <ele>1874</ele>
        <time>2020-05-22T07:42:12Z</time>
      </trkpt>
      <trkpt lat="42.81523" lon="1.41562">
        <ele>1875</ele>
        <time>2020-05-22T07:42:33Z</time>
      </trkpt>
      <trkpt lat="42.81534" lon="1.41567">
        <ele>1884</ele>
        <time>2020-05-22T07:46:07Z</time>
      </trkpt>
      <trkpt lat="42.81544" lon="1.41569">
        <ele>1884</ele>
        <time>2020-05-22T07:48:31Z</time>
      </trkpt>
      <trkpt lat="42.81554" lon="1.41571">
        <ele>1892</ele>
        <time>2020-05-22T07:49:03Z</time>
      </trkpt>
      <trkpt lat="42.81563" lon="1.41568">
        <ele>1891</ele>
        <time>2020-05-22T07:49:16Z</time>
      </trkpt>
      <trkpt lat="42.81573" lon="1.41563">
        <ele>1899</ele>
        <time>2020-05-22T07:49:47Z</time>
      </trkpt>
      <trkpt lat="42.81579" lon="1.41573">
        <ele>1907</ele>
        <time>2020-05-22T07:50:31Z</time>
      </trkpt>
      <trkpt lat="42.81583" lon="1.41591">
        <ele>1912</ele>
        <time>2020-05-22T07:50:57Z</time>
      </trkpt>
      <trkpt lat="42.81592" lon="1.41597">
        <ele>1911</ele>
        <time>2020-05-22T07:51:21Z</time>
      </trkpt>
      <trkpt lat="42.81594" lon="1.41615">
        <ele>1926</ele>
        <time>2020-05-22T07:52:04Z</time>
      </trkpt>
      <trkpt lat="42.81596" lon="1.41627">
        <ele>1927</ele>
        <time>2020-05-22T07:52:17Z</time>
      </trkpt>
      <trkpt lat="42.81605" lon="1.4162">
        <ele>1932</ele>
        <time>2020-05-22T07:52:48Z</time>
      </trkpt>
      <trkpt lat="42.8161" lon="1.41608">
        <ele>1936</ele>
        <time>2020-05-22T07:53:15Z</time>
      </trkpt>
      <trkpt lat="42.81616" lon="1.41599">
        <ele>1933</ele>
        <time>2020-05-22T07:53:35Z</time>
      </trkpt>
      <trkpt lat="42.81625" lon="1.41593">
        <ele>1935</ele>
        <time>2020-05-22T07:53:57Z</time>
      </trkpt>
      <trkpt lat="42.81636" lon="1.41593">
        <ele>1941</ele>
        <time>2020-05-22T07:54:16Z</time>
      </trkpt>
      <trkpt lat="42.81645" lon="1.41594">
        <ele>1944</ele>
        <time>2020-05-22T07:54:30Z</time>
      </trkpt>
      <trkpt lat="42.81655" lon="1.41591">
        <ele>1947</ele>
        <time>2020-05-22T07:54:46Z</time>
      </trkpt>
      <trkpt lat="42.81666" lon="1.41594">
        <ele>1953</ele>
        <time>2020-05-22T07:55:25Z</time>
      </trkpt>
      <trkpt lat="42.81679" lon="1.41586">
        <ele>1959</ele>
        <time>2020-05-22T07:56:57Z</time>
      </trkpt>
      <trkpt lat="42.81686" lon="1.41577">
        <ele>1960</ele>
        <time>2020-05-22T07:57:06Z</time>
      </trkpt>
      <trkpt lat="42.81694" lon="1.41568">
        <ele>1964</ele>
        <time>2020-05-22T07:57:18Z</time>
      </trkpt>
      <trkpt lat="42.817" lon="1.41559">
        <ele>1965</ele>
        <time>2020-05-22T07:57:27Z</time>
      </trkpt>
      <trkpt lat="42.81706" lon="1.41548">
        <ele>1962</ele>
        <time>2020-05-22T07:57:37Z</time>
      </trkpt>
      <trkpt lat="42.81714" lon="1.41542">
        <ele>1963</ele>
        <time>2020-05-22T07:57:50Z</time>
      </trkpt>
      <trkpt lat="42.81724" lon="1.41537">
        <ele>1965</ele>
        <time>2020-05-22T07:58:01Z</time>
      </trkpt>
      <trkpt lat="42.81733" lon="1.41529">
        <ele>1965</ele>
        <time>2020-05-22T07:58:11Z</time>
      </trkpt>
      <trkpt lat="42.81742" lon="1.41525">
        <ele>1965</ele>
        <time>2020-05-22T07:58:22Z</time>
      </trkpt>
      <trkpt lat="42.81751" lon="1.41519">
        <ele>1969</ele>
        <time>2020-05-22T07:58:37Z</time>
      </trkpt>
      <trkpt lat="42.8176" lon="1.41517">
        <ele>1971</ele>
        <time>2020-05-22T07:58:47Z</time>
      </trkpt>
      <trkpt lat="42.81769" lon="1.4151">
        <ele>1971</ele>
        <time>2020-05-22T07:58:58Z</time>
      </trkpt>
      <trkpt lat="42.81779" lon="1.41508">
        <ele>1969</ele>
        <time>2020-05-22T07:59:09Z</time>
      </trkpt>
      <trkpt lat="42.81789" lon="1.41505">
        <ele>1970</ele>
        <time>2020-05-22T07:59:29Z</time>
      </trkpt>
      <trkpt lat="42.81799" lon="1.41504">
        <ele>1974</ele>
        <time>2020-05-22T07:59:42Z</time>
      </trkpt>
      <trkpt lat="42.81807" lon="1.41512">
        <ele>1973</ele>
        <time>2020-05-22T07:59:55Z</time>
      </trkpt>
      <trkpt lat="42.81814" lon="1.4152">
        <ele>1975</ele>
        <time>2020-05-22T08:00:05Z</time>
      </trkpt>
      <trkpt lat="42.81821" lon="1.41528">
        <ele>1977</ele>
        <time>2020-05-22T08:00:17Z</time>
      </trkpt>
      <trkpt lat="42.81835" lon="1.41534">
        <ele>1974</ele>
        <time>2020-05-22T08:00:37Z</time>
      </trkpt>
      <trkpt lat="42.81844" lon="1.41536">
        <ele>1977</ele>
        <time>2020-05-22T08:00:49Z</time>
      </trkpt>
      <trkpt lat="42.81853" lon="1.41542">
        <ele>1976</ele>
        <time>2020-05-22T08:01:01Z</time>
      </trkpt>
      <trkpt lat="42.81863" lon="1.41541">
        <ele>1974</ele>
        <time>2020-05-22T08:01:09Z</time>
      </trkpt>
      <trkpt lat="42.81873" lon="1.41539">
        <ele>1975</ele>
        <time>2020-05-22T08:01:21Z</time>
      </trkpt>
      <trkpt lat="42.8188" lon="1.41546">
        <ele>1973</ele>
        <time>2020-05-22T08:01:31Z</time>
      </trkpt>
      <trkpt lat="42.81888" lon="1.41553">
        <ele>1969</ele>
        <time>2020-05-22T08:01:42Z</time>
      </trkpt>
      <trkpt lat="42.81898" lon="1.4156">
        <ele>1969</ele>
        <time>2020-05-22T08:01:54Z</time>
      </trkpt>
      <trkpt lat="42.81906" lon="1.41566">
        <ele>1966</ele>
        <time>2020-05-22T08:02:04Z</time>
      </trkpt>
      <trkpt lat="42.81914" lon="1.41573">
        <ele>1962</ele>
        <time>2020-05-22T08:02:17Z</time>
      </trkpt>
      <trkpt lat="42.81922" lon="1.41581">
        <ele>1961</ele>
        <time>2020-05-22T08:02:29Z</time>
      </trkpt>
      <trkpt lat="42.81931" lon="1.41586">
        <ele>1959</ele>
        <time>2020-05-22T08:02:38Z</time>
      </trkpt>
      <trkpt lat="42.8194" lon="1.41588">
        <ele>1957</ele>
        <time>2020-05-22T08:02:48Z</time>
      </trkpt>
      <trkpt lat="42.81953" lon="1.41586">
        <ele>1964</ele>
        <time>2020-05-22T08:03:35Z</time>
      </trkpt>
      <trkpt lat="42.81957" lon="1.41597">
        <ele>1968</ele>
        <time>2020-05-22T08:03:50Z</time>
      </trkpt>
      <trkpt lat="42.81964" lon="1.41608">
        <ele>1971</ele>
        <time>2020-05-22T08:04:11Z</time>
      </trkpt>
      <trkpt lat="42.81971" lon="1.41617">
        <ele>1967</ele>
        <time>2020-05-22T08:04:22Z</time>
      </trkpt>
      <trkpt lat="42.81981" lon="1.41621">
        <ele>1965</ele>
        <time>2020-05-22T08:04:41Z</time>
      </trkpt>
      <trkpt lat="42.81988" lon="1.4163">
        <ele>1982</ele>
        <time>2020-05-22T08:05:07Z</time>
      </trkpt>
      <trkpt lat="42.81993" lon="1.41641">
        <ele>1984</ele>
        <time>2020-05-22T08:05:20Z</time>
      </trkpt>
      <trkpt lat="42.82001" lon="1.41647">
        <ele>1983</ele>
        <time>2020-05-22T08:05:44Z</time>
      </trkpt>
      <trkpt lat="42.82011" lon="1.4165">
        <ele>1979</ele>
        <time>2020-05-22T08:05:59Z</time>
      </trkpt>
      <trkpt lat="42.82005" lon="1.41661">
        <ele>1985</ele>
        <time>2020-05-22T08:06:23Z</time>
      </trkpt>
      <trkpt lat="42.82007" lon="1.41673">
        <ele>1990</ele>
        <time>2020-05-22T08:06:46Z</time>
      </trkpt>
      <trkpt lat="42.82012" lon="1.41683">
        <ele>1993</ele>
        <time>2020-05-22T08:07:10Z</time>
      </trkpt>
      <trkpt lat="42.82017" lon="1.417">
        <ele>2001</ele>
        <time>2020-05-22T08:07:54Z</time>
      </trkpt>
      <trkpt lat="42.82026" lon="1.41704">
        <ele>2001</ele>
        <time>2020-05-22T08:09:47Z</time>
      </trkpt>
      <trkpt lat="42.82035" lon="1.41712">
        <ele>2001</ele>
        <time>2020-05-22T08:09:58Z</time>
      </trkpt>
      <trkpt lat="42.82041" lon="1.41723">
        <ele>2001</ele>
        <time>2020-05-22T08:10:09Z</time>
      </trkpt>
      <trkpt lat="42.82048" lon="1.4173">
        <ele>2001</ele>
        <time>2020-05-22T08:10:18Z</time>
      </trkpt>
      <trkpt lat="42.82057" lon="1.41739">
        <ele>2001</ele>
        <time>2020-05-22T08:10:27Z</time>
      </trkpt>
      <trkpt lat="42.82062" lon="1.4175">
        <ele>2009</ele>
        <time>2020-05-22T08:10:41Z</time>
      </trkpt>
      <trkpt lat="42.82072" lon="1.41748">
        <ele>2011</ele>
        <time>2020-05-22T08:10:48Z</time>
      </trkpt>
      <trkpt lat="42.82081" lon="1.41752">
        <ele>2011</ele>
        <time>2020-05-22T08:10:56Z</time>
      </trkpt>
      <trkpt lat="42.82093" lon="1.41761">
        <ele>2009</ele>
        <time>2020-05-22T08:11:13Z</time>
      </trkpt>
      <trkpt lat="42.82099" lon="1.41773">
        <ele>2010</ele>
        <time>2020-05-22T08:11:22Z</time>
      </trkpt>
      <trkpt lat="42.82104" lon="1.41785">
        <ele>2013</ele>
        <time>2020-05-22T08:11:31Z</time>
      </trkpt>
      <trkpt lat="42.82112" lon="1.41792">
        <ele>2015</ele>
        <time>2020-05-22T08:11:41Z</time>
      </trkpt>
      <trkpt lat="42.8212" lon="1.41803">
        <ele>2018</ele>
        <time>2020-05-22T08:11:53Z</time>
      </trkpt>
      <trkpt lat="42.82128" lon="1.4181">
        <ele>2018</ele>
        <time>2020-05-22T08:12:04Z</time>
      </trkpt>
      <trkpt lat="42.82135" lon="1.41821">
        <ele>2015</ele>
        <time>2020-05-22T08:12:14Z</time>
      </trkpt>
      <trkpt lat="42.82145" lon="1.41834">
        <ele>2005</ele>
        <time>2020-05-22T08:12:29Z</time>
      </trkpt>
      <trkpt lat="42.82154" lon="1.4184">
        <ele>1995</ele>
        <time>2020-05-22T08:12:42Z</time>
      </trkpt>
      <trkpt lat="42.82163" lon="1.41844">
        <ele>1991</ele>
        <time>2020-05-22T08:12:54Z</time>
      </trkpt>
      <trkpt lat="42.82171" lon="1.41852">
        <ele>1989</ele>
        <time>2020-05-22T08:13:03Z</time>
      </trkpt>
      <trkpt lat="42.82178" lon="1.41862">
        <ele>1984</ele>
        <time>2020-05-22T08:13:16Z</time>
      </trkpt>
      <trkpt lat="42.82186" lon="1.41871">
        <ele>1983</ele>
        <time>2020-05-22T08:13:25Z</time>
      </trkpt>
      <trkpt lat="42.82191" lon="1.41882">
        <ele>1979</ele>
        <time>2020-05-22T08:13:36Z</time>
      </trkpt>
      <trkpt lat="42.822" lon="1.4189">
        <ele>1979</ele>
        <time>2020-05-22T08:13:48Z</time>
      </trkpt>
      <trkpt lat="42.82211" lon="1.41894">
        <ele>1975</ele>
        <time>2020-05-22T08:14:00Z</time>
      </trkpt>
      <trkpt lat="42.8222" lon="1.41899">
        <ele>1971</ele>
        <time>2020-05-22T08:14:13Z</time>
      </trkpt>
      <trkpt lat="42.8223" lon="1.41905">
        <ele>1967</ele>
        <time>2020-05-22T08:14:24Z</time>
      </trkpt>
      <trkpt lat="42.82237" lon="1.41914">
        <ele>1968</ele>
        <time>2020-05-22T08:14:32Z</time>
      </trkpt>
      <trkpt lat="42.82245" lon="1.41924">
        <ele>1971</ele>
        <time>2020-05-22T08:14:40Z</time>
      </trkpt>
      <trkpt lat="42.82254" lon="1.41929">
        <ele>1968</ele>
        <time>2020-05-22T08:15:36Z</time>
      </trkpt>
      <trkpt lat="42.82264" lon="1.41931">
        <ele>1970</ele>
        <time>2020-05-22T08:17:43Z</time>
      </trkpt>
      <trkpt lat="42.82274" lon="1.41933">
        <ele>1969</ele>
        <time>2020-05-22T08:17:51Z</time>
      </trkpt>
      <trkpt lat="42.82284" lon="1.41934">
        <ele>1969</ele>
        <time>2020-05-22T08:17:59Z</time>
      </trkpt>
      <trkpt lat="42.82294" lon="1.41936">
        <ele>1968</ele>
        <time>2020-05-22T08:18:08Z</time>
      </trkpt>
      <trkpt lat="42.82302" lon="1.41943">
        <ele>1967</ele>
        <time>2020-05-22T08:18:19Z</time>
      </trkpt>
      <trkpt lat="42.82311" lon="1.41948">
        <ele>1969</ele>
        <time>2020-05-22T08:18:30Z</time>
      </trkpt>
      <trkpt lat="42.8232" lon="1.41952">
        <ele>1969</ele>
        <time>2020-05-22T08:18:38Z</time>
      </trkpt>
      <trkpt lat="42.8233" lon="1.41948">
        <ele>1974</ele>
        <time>2020-05-22T08:18:44Z</time>
      </trkpt>
      <trkpt lat="42.8234" lon="1.41952">
        <ele>1978</ele>
        <time>2020-05-22T08:18:53Z</time>
      </trkpt>
      <trkpt lat="42.82352" lon="1.41964">
        <ele>1977</ele>
        <time>2020-05-22T08:19:06Z</time>
      </trkpt>
      <trkpt lat="42.82361" lon="1.41968">
        <ele>1977</ele>
        <time>2020-05-22T08:19:14Z</time>
      </trkpt>
      <trkpt lat="42.82368" lon="1.41976">
        <ele>1974</ele>
        <time>2020-05-22T08:19:23Z</time>
      </trkpt>
      <trkpt lat="42.82378" lon="1.41977">
        <ele>1974</ele>
        <time>2020-05-22T08:19:31Z</time>
      </trkpt>
      <trkpt lat="42.82387" lon="1.41985">
        <ele>1976</ele>
        <time>2020-05-22T08:19:40Z</time>
      </trkpt>
      <trkpt lat="42.82393" lon="1.41994">
        <ele>1977</ele>
        <time>2020-05-22T08:19:51Z</time>
      </trkpt>
      <trkpt lat="42.82399" lon="1.42003">
        <ele>1976</ele>
        <time>2020-05-22T08:20:00Z</time>
      </trkpt>
      <trkpt lat="42.8241" lon="1.42015">
        <ele>1971</ele>
        <time>2020-05-22T08:20:17Z</time>
      </trkpt>
      <trkpt lat="42.82416" lon="1.42025">
        <ele>1975</ele>
        <time>2020-05-22T08:20:28Z</time>
      </trkpt>
      <trkpt lat="42.82426" lon="1.42038">
        <ele>1980</ele>
        <time>2020-05-22T08:20:48Z</time>
      </trkpt>
      <trkpt lat="42.82432" lon="1.42049">
        <ele>1983</ele>
        <time>2020-05-22T08:21:02Z</time>
      </trkpt>
      <trkpt lat="42.82438" lon="1.4206">
        <ele>1984</ele>
        <time>2020-05-22T08:21:14Z</time>
      </trkpt>
      <trkpt lat="42.82446" lon="1.42067">
        <ele>1982</ele>
        <time>2020-05-22T08:21:26Z</time>
      </trkpt>
      <trkpt lat="42.82452" lon="1.42082">
        <ele>1991</ele>
        <time>2020-05-22T08:21:42Z</time>
      </trkpt>
      <trkpt lat="42.82459" lon="1.42091">
        <ele>1991</ele>
        <time>2020-05-22T08:21:54Z</time>
      </trkpt>
      <trkpt lat="42.82468" lon="1.42099">
        <ele>1994</ele>
        <time>2020-05-22T08:22:11Z</time>
      </trkpt>
      <trkpt lat="42.82473" lon="1.42111">
        <ele>1994</ele>
        <time>2020-05-22T08:22:25Z</time>
      </trkpt>
      <trkpt lat="42.82481" lon="1.42121">
        <ele>2000</ele>
        <time>2020-05-22T08:22:40Z</time>
      </trkpt>
      <trkpt lat="42.82485" lon="1.42131">
        <ele>2002</ele>
        <time>2020-05-22T08:22:55Z</time>
      </trkpt>
      <trkpt lat="42.82491" lon="1.42143">
        <ele>2003</ele>
        <time>2020-05-22T08:23:09Z</time>
      </trkpt>
      <trkpt lat="42.82493" lon="1.42163">
        <ele>2009</ele>
        <time>2020-05-22T08:23:24Z</time>
      </trkpt>
      <trkpt lat="42.82495" lon="1.42175">
        <ele>2011</ele>
        <time>2020-05-22T08:23:36Z</time>
      </trkpt>
      <trkpt lat="42.82502" lon="1.42187">
        <ele>2008</ele>
        <time>2020-05-22T08:23:46Z</time>
      </trkpt>
      <trkpt lat="42.82505" lon="1.42199">
        <ele>2009</ele>
        <time>2020-05-22T08:23:54Z</time>
      </trkpt>
      <trkpt lat="42.8251" lon="1.4221">
        <ele>2012</ele>
        <time>2020-05-22T08:24:02Z</time>
      </trkpt>
      <trkpt lat="42.82515" lon="1.42221">
        <ele>2012</ele>
        <time>2020-05-22T08:24:14Z</time>
      </trkpt>
      <trkpt lat="42.82515" lon="1.42234">
        <ele>2016</ele>
        <time>2020-05-22T08:24:25Z</time>
      </trkpt>
      <trkpt lat="42.8252" lon="1.42245">
        <ele>2019</ele>
        <time>2020-05-22T08:24:38Z</time>
      </trkpt>
      <trkpt lat="42.82525" lon="1.42256">
        <ele>2021</ele>
        <time>2020-05-22T08:24:49Z</time>
      </trkpt>
      <trkpt lat="42.8253" lon="1.42268">
        <ele>2022</ele>
        <time>2020-05-22T08:25:00Z</time>
      </trkpt>
      <trkpt lat="42.82535" lon="1.42279">
        <ele>2023</ele>
        <time>2020-05-22T08:25:10Z</time>
      </trkpt>
      <trkpt lat="42.82545" lon="1.42282">
        <ele>2025</ele>
        <time>2020-05-22T08:25:19Z</time>
      </trkpt>
      <trkpt lat="42.82551" lon="1.42293">
        <ele>2025</ele>
        <time>2020-05-22T08:25:33Z</time>
      </trkpt>
      <trkpt lat="42.82556" lon="1.42303">
        <ele>2022</ele>
        <time>2020-05-22T08:25:46Z</time>
      </trkpt>
      <trkpt lat="42.82557" lon="1.42318">
        <ele>2031</ele>
        <time>2020-05-22T08:25:56Z</time>
      </trkpt>
      <trkpt lat="42.8256" lon="1.4233">
        <ele>2032</ele>
        <time>2020-05-22T08:26:10Z</time>
      </trkpt>
      <trkpt lat="42.82564" lon="1.42341">
        <ele>2035</ele>
        <time>2020-05-22T08:26:23Z</time>
      </trkpt>
      <trkpt lat="42.82571" lon="1.42357">
        <ele>2038</ele>
        <time>2020-05-22T08:26:40Z</time>
      </trkpt>
      <trkpt lat="42.82574" lon="1.42376">
        <ele>2039</ele>
        <time>2020-05-22T08:27:09Z</time>
      </trkpt>
      <trkpt lat="42.82573" lon="1.42389">
        <ele>2042</ele>
        <time>2020-05-22T08:27:25Z</time>
      </trkpt>
      <trkpt lat="42.82577" lon="1.42401">
        <ele>2044</ele>
        <time>2020-05-22T08:28:20Z</time>
      </trkpt>
      <trkpt lat="42.82582" lon="1.42413">
        <ele>2044</ele>
        <time>2020-05-22T08:31:45Z</time>
      </trkpt>
      <trkpt lat="42.82582" lon="1.42426">
        <ele>2039</ele>
        <time>2020-05-22T08:32:01Z</time>
      </trkpt>
      <trkpt lat="42.82591" lon="1.4244">
        <ele>2043</ele>
        <time>2020-05-22T08:32:20Z</time>
      </trkpt>
      <trkpt lat="42.82586" lon="1.42453">
        <ele>2039</ele>
        <time>2020-05-22T08:33:41Z</time>
      </trkpt>
      <trkpt lat="42.82579" lon="1.42462">
        <ele>2031</ele>
        <time>2020-05-22T08:34:35Z</time>
      </trkpt>
      <trkpt lat="42.82583" lon="1.42474">
        <ele>2031</ele>
        <time>2020-05-22T08:34:43Z</time>
      </trkpt>
      <trkpt lat="42.82591" lon="1.42482">
        <ele>2030</ele>
        <time>2020-05-22T08:34:56Z</time>
      </trkpt>
      <trkpt lat="42.82595" lon="1.42494">
        <ele>2030</ele>
        <time>2020-05-22T08:35:21Z</time>
      </trkpt>
      <trkpt lat="42.82599" lon="1.42507">
        <ele>2031</ele>
        <time>2020-05-22T08:35:37Z</time>
      </trkpt>
      <trkpt lat="42.82606" lon="1.42515">
        <ele>2033</ele>
        <time>2020-05-22T08:36:01Z</time>
      </trkpt>
      <trkpt lat="42.82611" lon="1.42527">
        <ele>2032</ele>
        <time>2020-05-22T08:36:21Z</time>
      </trkpt>
      <trkpt lat="42.82618" lon="1.42539">
        <ele>2036</ele>
        <time>2020-05-22T08:38:10Z</time>
      </trkpt>
      <trkpt lat="42.82624" lon="1.42548">
        <ele>2036</ele>
        <time>2020-05-22T08:38:18Z</time>
      </trkpt>
      <trkpt lat="42.8263" lon="1.42559">
        <ele>2037</ele>
        <time>2020-05-22T08:38:25Z</time>
      </trkpt>
      <trkpt lat="42.82634" lon="1.4257">
        <ele>2034</ele>
        <time>2020-05-22T08:38:34Z</time>
      </trkpt>
      <trkpt lat="42.82641" lon="1.42582">
        <ele>2033</ele>
        <time>2020-05-22T08:38:43Z</time>
      </trkpt>
      <trkpt lat="42.82649" lon="1.42589">
        <ele>2038</ele>
        <time>2020-05-22T08:38:51Z</time>
      </trkpt>
      <trkpt lat="42.82652" lon="1.42601">
        <ele>2038</ele>
        <time>2020-05-22T08:38:59Z</time>
      </trkpt>
      <trkpt lat="42.82657" lon="1.42613">
        <ele>2039</ele>
        <time>2020-05-22T08:39:08Z</time>
      </trkpt>
      <trkpt lat="42.8266" lon="1.42626">
        <ele>2034</ele>
        <time>2020-05-22T08:39:18Z</time>
      </trkpt>
      <trkpt lat="42.82666" lon="1.42637">
        <ele>2031</ele>
        <time>2020-05-22T08:39:28Z</time>
      </trkpt>
      <trkpt lat="42.82672" lon="1.4265">
        <ele>2031</ele>
        <time>2020-05-22T08:39:37Z</time>
      </trkpt>
      <trkpt lat="42.82675" lon="1.42662">
        <ele>2033</ele>
        <time>2020-05-22T08:39:45Z</time>
      </trkpt>
      <trkpt lat="42.82681" lon="1.42676">
        <ele>2033</ele>
        <time>2020-05-22T08:39:55Z</time>
      </trkpt>
      <trkpt lat="42.82684" lon="1.42689">
        <ele>2029</ele>
        <time>2020-05-22T08:40:05Z</time>
      </trkpt>
      <trkpt lat="42.82689" lon="1.427">
        <ele>2027</ele>
        <time>2020-05-22T08:40:13Z</time>
      </trkpt>
      <trkpt lat="42.82692" lon="1.42712">
        <ele>2027</ele>
        <time>2020-05-22T08:40:23Z</time>
      </trkpt>
      <trkpt lat="42.82697" lon="1.42723">
        <ele>2025</ele>
        <time>2020-05-22T08:40:33Z</time>
      </trkpt>
      <trkpt lat="42.82696" lon="1.42736">
        <ele>2026</ele>
        <time>2020-05-22T08:40:41Z</time>
      </trkpt>
      <trkpt lat="42.82695" lon="1.42751">
        <ele>2027</ele>
        <time>2020-05-22T08:40:50Z</time>
      </trkpt>
      <trkpt lat="42.82696" lon="1.42765">
        <ele>2022</ele>
        <time>2020-05-22T08:40:59Z</time>
      </trkpt>
      <trkpt lat="42.82695" lon="1.42778">
        <ele>2022</ele>
        <time>2020-05-22T08:41:07Z</time>
      </trkpt>
      <trkpt lat="42.82698" lon="1.42791">
        <ele>2024</ele>
        <time>2020-05-22T08:41:16Z</time>
      </trkpt>
      <trkpt lat="42.82703" lon="1.42803">
        <ele>2026</ele>
        <time>2020-05-22T08:41:25Z</time>
      </trkpt>
      <trkpt lat="42.82706" lon="1.42815">
        <ele>2027</ele>
        <time>2020-05-22T08:41:32Z</time>
      </trkpt>
      <trkpt lat="42.82711" lon="1.42828">
        <ele>2023</ele>
        <time>2020-05-22T08:41:41Z</time>
      </trkpt>
      <trkpt lat="42.8272" lon="1.42836">
        <ele>2025</ele>
        <time>2020-05-22T08:41:52Z</time>
      </trkpt>
      <trkpt lat="42.82728" lon="1.42846">
        <ele>2031</ele>
        <time>2020-05-22T08:42:05Z</time>
      </trkpt>
      <trkpt lat="42.82729" lon="1.42865">
        <ele>2025</ele>
        <time>2020-05-22T08:42:19Z</time>
      </trkpt>
      <trkpt lat="42.82733" lon="1.42876">
        <ele>2028</ele>
        <time>2020-05-22T08:42:30Z</time>
      </trkpt>
      <trkpt lat="42.82742" lon="1.42881">
        <ele>2036</ele>
        <time>2020-05-22T08:42:43Z</time>
      </trkpt>
      <trkpt lat="42.82749" lon="1.42893">
        <ele>2038</ele>
        <time>2020-05-22T08:42:51Z</time>
      </trkpt>
      <trkpt lat="42.82756" lon="1.42908">
        <ele>2038</ele>
        <time>2020-05-22T08:43:16Z</time>
      </trkpt>
      <trkpt lat="42.82765" lon="1.42922">
        <ele>2040</ele>
        <time>2020-05-22T08:43:32Z</time>
      </trkpt>
      <trkpt lat="42.82777" lon="1.42927">
        <ele>2041</ele>
        <time>2020-05-22T08:43:50Z</time>
      </trkpt>
      <trkpt lat="42.82786" lon="1.42933">
        <ele>2041</ele>
        <time>2020-05-22T08:44:03Z</time>
      </trkpt>
      <trkpt lat="42.82791" lon="1.42943">
        <ele>2039</ele>
        <time>2020-05-22T08:44:17Z</time>
      </trkpt>
      <trkpt lat="42.82801" lon="1.42956">
        <ele>2035</ele>
        <time>2020-05-22T08:44:43Z</time>
      </trkpt>
      <trkpt lat="42.82805" lon="1.42967">
        <ele>2030</ele>
        <time>2020-05-22T08:45:05Z</time>
      </trkpt>
      <trkpt lat="42.82807" lon="1.4298">
        <ele>2031</ele>
        <time>2020-05-22T08:45:34Z</time>
      </trkpt>
      <trkpt lat="42.82815" lon="1.42987">
        <ele>2033</ele>
        <time>2020-05-22T08:45:44Z</time>
      </trkpt>
      <trkpt lat="42.8282" lon="1.42998">
        <ele>2039</ele>
        <time>2020-05-22T08:46:58Z</time>
      </trkpt>
      <trkpt lat="42.82828" lon="1.43004">
        <ele>2031</ele>
        <time>2020-05-22T08:47:10Z</time>
      </trkpt>
      <trkpt lat="42.82831" lon="1.43017">
        <ele>2028</ele>
        <time>2020-05-22T08:47:24Z</time>
      </trkpt>
      <trkpt lat="42.82836" lon="1.4303">
        <ele>2020</ele>
        <time>2020-05-22T08:47:37Z</time>
      </trkpt>
      <trkpt lat="42.82846" lon="1.4304">
        <ele>2026</ele>
        <time>2020-05-22T08:48:16Z</time>
      </trkpt>
      <trkpt lat="42.82854" lon="1.43049">
        <ele>2025</ele>
        <time>2020-05-22T08:48:42Z</time>
      </trkpt>
      <trkpt lat="42.82861" lon="1.43059">
        <ele>2029</ele>
        <time>2020-05-22T08:48:54Z</time>
      </trkpt>
      <trkpt lat="42.82866" lon="1.43071">
        <ele>2035</ele>
        <time>2020-05-22T08:49:07Z</time>
      </trkpt>
      <trkpt lat="42.8287" lon="1.43083">
        <ele>2034</ele>
        <time>2020-05-22T08:49:18Z</time>
      </trkpt>
      <trkpt lat="42.82877" lon="1.43093">
        <ele>2034</ele>
        <time>2020-05-22T08:49:31Z</time>
      </trkpt>
      <trkpt lat="42.82883" lon="1.43103">
        <ele>2037</ele>
        <time>2020-05-22T08:49:45Z</time>
      </trkpt>
      <trkpt lat="42.8289" lon="1.43114">
        <ele>2038</ele>
        <time>2020-05-22T08:50:00Z</time>
      </trkpt>
      <trkpt lat="42.82894" lon="1.43125">
        <ele>2043</ele>
        <time>2020-05-22T08:50:18Z</time>
      </trkpt>
      <trkpt lat="42.82896" lon="1.43138">
        <ele>2045</ele>
        <time>2020-05-22T08:50:30Z</time>
      </trkpt>
      <trkpt lat="42.82894" lon="1.4315">
        <ele>2048</ele>
        <time>2020-05-22T08:50:48Z</time>
      </trkpt>
      <trkpt lat="42.82897" lon="1.43163">
        <ele>2052</ele>
        <time>2020-05-22T08:51:09Z</time>
      </trkpt>
      <trkpt lat="42.82897" lon="1.43176">
        <ele>2052</ele>
        <time>2020-05-22T08:51:31Z</time>
      </trkpt>
      <trkpt lat="42.82893" lon="1.43186">
        <ele>2053</ele>
        <time>2020-05-22T08:51:47Z</time>
      </trkpt>
      <trkpt lat="42.82894" lon="1.43199">
        <ele>2054</ele>
        <time>2020-05-22T08:52:13Z</time>
      </trkpt>
      <trkpt lat="42.82892" lon="1.43212">
        <ele>2054</ele>
        <time>2020-05-22T08:52:33Z</time>
      </trkpt>
      <trkpt lat="42.82892" lon="1.43226">
        <ele>2057</ele>
        <time>2020-05-22T08:52:42Z</time>
      </trkpt>
      <trkpt lat="42.82891" lon="1.43238">
        <ele>2052</ele>
        <time>2020-05-22T08:52:55Z</time>
      </trkpt>
      <trkpt lat="42.82889" lon="1.43254">
        <ele>2054</ele>
        <time>2020-05-22T08:54:35Z</time>
      </trkpt>
      <trkpt lat="42.82889" lon="1.43267">
        <ele>2041</ele>
        <time>2020-05-22T08:55:10Z</time>
      </trkpt>
      <trkpt lat="42.82892" lon="1.43279">
        <ele>2040</ele>
        <time>2020-05-22T08:55:21Z</time>
      </trkpt>
      <trkpt lat="42.82897" lon="1.43291">
        <ele>2038</ele>
        <time>2020-05-22T08:55:37Z</time>
      </trkpt>
      <trkpt lat="42.829" lon="1.43303">
        <ele>2039</ele>
        <time>2020-05-22T08:55:47Z</time>
      </trkpt>
      <trkpt lat="42.82904" lon="1.43315">
        <ele>2040</ele>
        <time>2020-05-22T08:56:05Z</time>
      </trkpt>
      <trkpt lat="42.82906" lon="1.43328">
        <ele>2037</ele>
        <time>2020-05-22T08:56:15Z</time>
      </trkpt>
      <trkpt lat="42.82912" lon="1.43338">
        <ele>2032</ele>
        <time>2020-05-22T08:56:23Z</time>
      </trkpt>
      <trkpt lat="42.82918" lon="1.4335">
        <ele>2034</ele>
        <time>2020-05-22T08:56:32Z</time>
      </trkpt>
      <trkpt lat="42.82924" lon="1.43361">
        <ele>2032</ele>
        <time>2020-05-22T08:56:41Z</time>
      </trkpt>
      <trkpt lat="42.82929" lon="1.43372">
        <ele>2034</ele>
        <time>2020-05-22T08:56:55Z</time>
      </trkpt>
      <trkpt lat="42.82932" lon="1.43384">
        <ele>2037</ele>
        <time>2020-05-22T08:57:10Z</time>
      </trkpt>
      <trkpt lat="42.82933" lon="1.43396">
        <ele>2037</ele>
        <time>2020-05-22T08:57:20Z</time>
      </trkpt>
      <trkpt lat="42.82935" lon="1.43409">
        <ele>2038</ele>
        <time>2020-05-22T08:57:33Z</time>
      </trkpt>
      <trkpt lat="42.82938" lon="1.43421">
        <ele>2043</ele>
        <time>2020-05-22T08:57:47Z</time>
      </trkpt>
      <trkpt lat="42.82941" lon="1.43434">
        <ele>2034</ele>
        <time>2020-05-22T08:57:57Z</time>
      </trkpt>
      <trkpt lat="42.82944" lon="1.43448">
        <ele>2038</ele>
        <time>2020-05-22T08:58:09Z</time>
      </trkpt>
      <trkpt lat="42.82948" lon="1.43459">
        <ele>2044</ele>
        <time>2020-05-22T08:58:35Z</time>
      </trkpt>
      <trkpt lat="42.82953" lon="1.4347">
        <ele>2051</ele>
        <time>2020-05-22T08:59:11Z</time>
      </trkpt>
      <trkpt lat="42.82958" lon="1.43481">
        <ele>2045</ele>
        <time>2020-05-22T08:59:54Z</time>
      </trkpt>
      <trkpt lat="42.82965" lon="1.43489">
        <ele>2058</ele>
        <time>2020-05-22T09:00:40Z</time>
      </trkpt>
      <trkpt lat="42.82967" lon="1.43508">
        <ele>2071</ele>
        <time>2020-05-22T09:01:38Z</time>
      </trkpt>
      <trkpt lat="42.82961" lon="1.43519">
        <ele>2066</ele>
        <time>2020-05-22T09:01:50Z</time>
      </trkpt>
      <trkpt lat="42.82952" lon="1.43524">
        <ele>2066</ele>
        <time>2020-05-22T09:02:00Z</time>
      </trkpt>
      <trkpt lat="42.82951" lon="1.43537">
        <ele>2064</ele>
        <time>2020-05-22T09:02:15Z</time>
      </trkpt>
      <trkpt lat="42.82953" lon="1.43552">
        <ele>2081</ele>
        <time>2020-05-22T09:03:22Z</time>
      </trkpt>
      <trkpt lat="42.82948" lon="1.43564">
        <ele>2085</ele>
        <time>2020-05-22T09:03:47Z</time>
      </trkpt>
      <trkpt lat="42.82946" lon="1.43577">
        <ele>2085</ele>
        <time>2020-05-22T09:04:08Z</time>
      </trkpt>
      <trkpt lat="42.82949" lon="1.4359">
        <ele>2090</ele>
        <time>2020-05-22T09:04:18Z</time>
      </trkpt>
      <trkpt lat="42.8296" lon="1.43597">
        <ele>2102</ele>
        <time>2020-05-22T09:06:14Z</time>
      </trkpt>
      <trkpt lat="42.82962" lon="1.4361">
        <ele>2107</ele>
        <time>2020-05-22T09:07:40Z</time>
      </trkpt>
      <trkpt lat="42.82963" lon="1.43623">
        <ele>2110</ele>
        <time>2020-05-22T09:07:54Z</time>
      </trkpt>
      <trkpt lat="42.82969" lon="1.4364">
        <ele>2119</ele>
        <time>2020-05-22T09:09:06Z</time>
      </trkpt>
      <trkpt lat="42.82969" lon="1.43653">
        <ele>2127</ele>
        <time>2020-05-22T09:09:29Z</time>
      </trkpt>
      <trkpt lat="42.82967" lon="1.43665">
        <ele>2134</ele>
        <time>2020-05-22T09:09:52Z</time>
      </trkpt>
      <trkpt lat="42.8297" lon="1.43677">
        <ele>2134</ele>
        <time>2020-05-22T09:10:18Z</time>
      </trkpt>
      <trkpt lat="42.82966" lon="1.43691">
        <ele>2136</ele>
        <time>2020-05-22T09:10:30Z</time>
      </trkpt>
      <trkpt lat="42.82963" lon="1.43705">
        <ele>2132</ele>
        <time>2020-05-22T09:10:49Z</time>
      </trkpt>
      <trkpt lat="42.82963" lon="1.43717">
        <ele>2132</ele>
        <time>2020-05-22T09:11:10Z</time>
      </trkpt>
      <trkpt lat="42.8296" lon="1.43735">
        <ele>2130</ele>
        <time>2020-05-22T09:11:33Z</time>
      </trkpt>
      <trkpt lat="42.82969" lon="1.4374">
        <ele>2128</ele>
        <time>2020-05-22T09:12:08Z</time>
      </trkpt>
      <trkpt lat="42.82974" lon="1.43752">
        <ele>2135</ele>
        <time>2020-05-22T09:12:20Z</time>
      </trkpt>
      <trkpt lat="42.82983" lon="1.43752">
        <ele>2144</ele>
        <time>2020-05-22T09:12:32Z</time>
      </trkpt>
      <trkpt lat="42.82984" lon="1.43765">
        <ele>2148</ele>
        <time>2020-05-22T09:13:22Z</time>
      </trkpt>
      <trkpt lat="42.8298" lon="1.43776">
        <ele>2143</ele>
        <time>2020-05-22T09:13:51Z</time>
      </trkpt>
      <trkpt lat="42.82977" lon="1.43789">
        <ele>2154</ele>
        <time>2020-05-22T09:14:53Z</time>
      </trkpt>
      <trkpt lat="42.82981" lon="1.438">
        <ele>2163</ele>
        <time>2020-05-22T09:15:20Z</time>
      </trkpt>
      <trkpt lat="42.82984" lon="1.43813">
        <ele>2157</ele>
        <time>2020-05-22T09:15:51Z</time>
      </trkpt>
      <trkpt lat="42.82988" lon="1.43831">
        <ele>2165</ele>
        <time>2020-05-22T09:16:09Z</time>
      </trkpt>
      <trkpt lat="42.8299" lon="1.43843">
        <ele>2169</ele>
        <time>2020-05-22T09:16:23Z</time>
      </trkpt>
      <trkpt lat="42.82998" lon="1.4385">
        <ele>2171</ele>
        <time>2020-05-22T09:16:38Z</time>
      </trkpt>
      <trkpt lat="42.82998" lon="1.43862">
        <ele>2170</ele>
        <time>2020-05-22T09:17:00Z</time>
      </trkpt>
      <trkpt lat="42.82991" lon="1.43872">
        <ele>2163</ele>
        <time>2020-05-22T09:17:10Z</time>
      </trkpt>
      <trkpt lat="42.83001" lon="1.43882">
        <ele>2179</ele>
        <time>2020-05-22T09:17:30Z</time>
      </trkpt>
      <trkpt lat="42.83012" lon="1.4389">
        <ele>2182</ele>
        <time>2020-05-22T09:18:20Z</time>
      </trkpt>
      <trkpt lat="42.83009" lon="1.43904">
        <ele>2184</ele>
        <time>2020-05-22T09:18:33Z</time>
      </trkpt>
      <trkpt lat="42.83012" lon="1.43916">
        <ele>2185</ele>
        <time>2020-05-22T09:19:12Z</time>
      </trkpt>
      <trkpt lat="42.83018" lon="1.43927">
        <ele>2189</ele>
        <time>2020-05-22T09:19:27Z</time>
      </trkpt>
      <trkpt lat="42.83024" lon="1.43938">
        <ele>2192</ele>
        <time>2020-05-22T09:19:36Z</time>
      </trkpt>
      <trkpt lat="42.83029" lon="1.43949">
        <ele>2191</ele>
        <time>2020-05-22T09:19:54Z</time>
      </trkpt>
      <trkpt lat="42.8303" lon="1.43961">
        <ele>2192</ele>
        <time>2020-05-22T09:20:19Z</time>
      </trkpt>
      <trkpt lat="42.83031" lon="1.43976">
        <ele>2190</ele>
        <time>2020-05-22T09:20:36Z</time>
      </trkpt>
      <trkpt lat="42.83038" lon="1.43985">
        <ele>2192</ele>
        <time>2020-05-22T09:21:01Z</time>
      </trkpt>
      <trkpt lat="42.83043" lon="1.44001">
        <ele>2198</ele>
        <time>2020-05-22T09:21:32Z</time>
      </trkpt>
      <trkpt lat="42.83051" lon="1.44009">
        <ele>2200</ele>
        <time>2020-05-22T09:23:01Z</time>
      </trkpt>
      <trkpt lat="42.83041" lon="1.44015">
        <ele>2198</ele>
        <time>2020-05-22T09:33:37Z</time>
      </trkpt>
      <trkpt lat="42.83037" lon="1.44027">
        <ele>2188</ele>
        <time>2020-05-22T09:34:32Z</time>
      </trkpt>
      <trkpt lat="42.83034" lon="1.44039">
        <ele>2186</ele>
        <time>2020-05-22T09:35:31Z</time>
      </trkpt>
      <trkpt lat="42.83024" lon="1.44042">
        <ele>2166</ele>
        <time>2020-05-22T09:37:18Z</time>
      </trkpt>
      <trkpt lat="42.83013" lon="1.44031">
        <ele>2160</ele>
        <time>2020-05-22T09:38:11Z</time>
      </trkpt>
      <trkpt lat="42.83003" lon="1.44031">
        <ele>2160</ele>
        <time>2020-05-22T09:38:21Z</time>
      </trkpt>
      <trkpt lat="42.8299" lon="1.44029">
        <ele>2150</ele>
        <time>2020-05-22T09:39:25Z</time>
      </trkpt>
      <trkpt lat="42.82981" lon="1.44025">
        <ele>2143</ele>
        <time>2020-05-22T09:39:49Z</time>
      </trkpt>
      <trkpt lat="42.82971" lon="1.4402">
        <ele>2141</ele>
        <time>2020-05-22T09:39:58Z</time>
      </trkpt>
      <trkpt lat="42.82963" lon="1.44012">
        <ele>2138</ele>
        <time>2020-05-22T09:40:09Z</time>
      </trkpt>
      <trkpt lat="42.82955" lon="1.44006">
        <ele>2135</ele>
        <time>2020-05-22T09:40:39Z</time>
      </trkpt>
      <trkpt lat="42.82947" lon="1.43998">
        <ele>2131</ele>
        <time>2020-05-22T09:40:47Z</time>
      </trkpt>
      <trkpt lat="42.82941" lon="1.43988">
        <ele>2133</ele>
        <time>2020-05-22T09:40:55Z</time>
      </trkpt>
      <trkpt lat="42.82932" lon="1.43982">
        <ele>2132</ele>
        <time>2020-05-22T09:41:07Z</time>
      </trkpt>
      <trkpt lat="42.82922" lon="1.43977">
        <ele>2130</ele>
        <time>2020-05-22T09:41:18Z</time>
      </trkpt>
      <trkpt lat="42.82917" lon="1.43966">
        <ele>2124</ele>
        <time>2020-05-22T09:41:30Z</time>
      </trkpt>
      <trkpt lat="42.82913" lon="1.43952">
        <ele>2125</ele>
        <time>2020-05-22T09:41:40Z</time>
      </trkpt>
      <trkpt lat="42.82907" lon="1.4394">
        <ele>2123</ele>
        <time>2020-05-22T09:41:49Z</time>
      </trkpt>
      <trkpt lat="42.82905" lon="1.43926">
        <ele>2121</ele>
        <time>2020-05-22T09:42:00Z</time>
      </trkpt>
      <trkpt lat="42.82903" lon="1.43912">
        <ele>2120</ele>
        <time>2020-05-22T09:42:11Z</time>
      </trkpt>
      <trkpt lat="42.82901" lon="1.43899">
        <ele>2118</ele>
        <time>2020-05-22T09:42:21Z</time>
      </trkpt>
      <trkpt lat="42.829" lon="1.43886">
        <ele>2117</ele>
        <time>2020-05-22T09:42:30Z</time>
      </trkpt>
      <trkpt lat="42.82899" lon="1.43873">
        <ele>2118</ele>
        <time>2020-05-22T09:42:42Z</time>
      </trkpt>
      <trkpt lat="42.82899" lon="1.4386">
        <ele>2116</ele>
        <time>2020-05-22T09:43:18Z</time>
      </trkpt>
      <trkpt lat="42.8289" lon="1.43849">
        <ele>2114</ele>
        <time>2020-05-22T09:44:25Z</time>
      </trkpt>
      <trkpt lat="42.82889" lon="1.43836">
        <ele>2112</ele>
        <time>2020-05-22T09:44:41Z</time>
      </trkpt>
      <trkpt lat="42.82888" lon="1.43823">
        <ele>2110</ele>
        <time>2020-05-22T09:45:10Z</time>
      </trkpt>
      <trkpt lat="42.82885" lon="1.43811">
        <ele>2104</ele>
        <time>2020-05-22T09:45:48Z</time>
      </trkpt>
      <trkpt lat="42.82876" lon="1.43815">
        <ele>2101</ele>
        <time>2020-05-22T09:46:13Z</time>
      </trkpt>
      <trkpt lat="42.82867" lon="1.4381">
        <ele>2096</ele>
        <time>2020-05-22T09:46:46Z</time>
      </trkpt>
      <trkpt lat="42.82855" lon="1.43805">
        <ele>2087</ele>
        <time>2020-05-22T09:47:13Z</time>
      </trkpt>
      <trkpt lat="42.82849" lon="1.43794">
        <ele>2081</ele>
        <time>2020-05-22T09:47:25Z</time>
      </trkpt>
      <trkpt lat="42.82841" lon="1.43787">
        <ele>2082</ele>
        <time>2020-05-22T09:47:39Z</time>
      </trkpt>
      <trkpt lat="42.82843" lon="1.43775">
        <ele>2073</ele>
        <time>2020-05-22T09:48:00Z</time>
      </trkpt>
      <trkpt lat="42.82841" lon="1.43762">
        <ele>2066</ele>
        <time>2020-05-22T09:48:15Z</time>
      </trkpt>
      <trkpt lat="42.82837" lon="1.43749">
        <ele>2065</ele>
        <time>2020-05-22T09:48:29Z</time>
      </trkpt>
      <trkpt lat="42.82838" lon="1.43736">
        <ele>2062</ele>
        <time>2020-05-22T09:48:51Z</time>
      </trkpt>
      <trkpt lat="42.82839" lon="1.43723">
        <ele>2061</ele>
        <time>2020-05-22T09:49:10Z</time>
      </trkpt>
      <trkpt lat="42.82836" lon="1.43711">
        <ele>2060</ele>
        <time>2020-05-22T09:49:20Z</time>
      </trkpt>
      <trkpt lat="42.82835" lon="1.43697">
        <ele>2058</ele>
        <time>2020-05-22T09:49:33Z</time>
      </trkpt>
      <trkpt lat="42.8283" lon="1.43685">
        <ele>2056</ele>
        <time>2020-05-22T09:50:00Z</time>
      </trkpt>
      <trkpt lat="42.82836" lon="1.43674">
        <ele>2051</ele>
        <time>2020-05-22T09:50:13Z</time>
      </trkpt>
      <trkpt lat="42.82837" lon="1.43661">
        <ele>2053</ele>
        <time>2020-05-22T09:50:25Z</time>
      </trkpt>
      <trkpt lat="42.82836" lon="1.43647">
        <ele>2050</ele>
        <time>2020-05-22T09:50:39Z</time>
      </trkpt>
      <trkpt lat="42.82832" lon="1.43635">
        <ele>2049</ele>
        <time>2020-05-22T09:50:46Z</time>
      </trkpt>
      <trkpt lat="42.82834" lon="1.43623">
        <ele>2047</ele>
        <time>2020-05-22T09:50:56Z</time>
      </trkpt>
      <trkpt lat="42.82842" lon="1.43613">
        <ele>2049</ele>
        <time>2020-05-22T09:51:04Z</time>
      </trkpt>
      <trkpt lat="42.82848" lon="1.43602">
        <ele>2044</ele>
        <time>2020-05-22T09:51:16Z</time>
      </trkpt>
      <trkpt lat="42.82851" lon="1.43589">
        <ele>2045</ele>
        <time>2020-05-22T09:51:26Z</time>
      </trkpt>
      <trkpt lat="42.82853" lon="1.43576">
        <ele>2043</ele>
        <time>2020-05-22T09:51:39Z</time>
      </trkpt>
      <trkpt lat="42.82855" lon="1.43563">
        <ele>2041</ele>
        <time>2020-05-22T09:51:50Z</time>
      </trkpt>
      <trkpt lat="42.82857" lon="1.4355">
        <ele>2041</ele>
        <time>2020-05-22T09:52:02Z</time>
      </trkpt>
      <trkpt lat="42.82861" lon="1.43538">
        <ele>2030</ele>
        <time>2020-05-22T09:52:20Z</time>
      </trkpt>
      <trkpt lat="42.82853" lon="1.43529">
        <ele>2034</ele>
        <time>2020-05-22T09:52:30Z</time>
      </trkpt>
      <trkpt lat="42.82857" lon="1.43515">
        <ele>2032</ele>
        <time>2020-05-22T09:52:39Z</time>
      </trkpt>
      <trkpt lat="42.82861" lon="1.43501">
        <ele>2025</ele>
        <time>2020-05-22T09:53:21Z</time>
      </trkpt>
      <trkpt lat="42.8287" lon="1.43502">
        <ele>2033</ele>
        <time>2020-05-22T09:54:10Z</time>
      </trkpt>
      <trkpt lat="42.82883" lon="1.43503">
        <ele>2033</ele>
        <time>2020-05-22T09:56:09Z</time>
      </trkpt>
      <trkpt lat="42.82892" lon="1.43499">
        <ele>2035</ele>
        <time>2020-05-22T09:56:31Z</time>
      </trkpt>
      <trkpt lat="42.829" lon="1.43493">
        <ele>2035</ele>
        <time>2020-05-22T09:57:01Z</time>
      </trkpt>
      <trkpt lat="42.82908" lon="1.43487">
        <ele>2040</ele>
        <time>2020-05-22T09:57:27Z</time>
      </trkpt>
      <trkpt lat="42.82917" lon="1.43475">
        <ele>2042</ele>
        <time>2020-05-22T09:57:48Z</time>
      </trkpt>
      <trkpt lat="42.82923" lon="1.43459">
        <ele>2047</ele>
        <time>2020-05-22T09:58:28Z</time>
      </trkpt>
      <trkpt lat="42.82932" lon="1.43453">
        <ele>2046</ele>
        <time>2020-05-22T09:58:58Z</time>
      </trkpt>
      <trkpt lat="42.82937" lon="1.43435">
        <ele>2040</ele>
        <time>2020-05-22T09:59:33Z</time>
      </trkpt>
      <trkpt lat="42.82929" lon="1.43421">
        <ele>2039</ele>
        <time>2020-05-22T09:59:50Z</time>
      </trkpt>
      <trkpt lat="42.82922" lon="1.43413">
        <ele>2036</ele>
        <time>2020-05-22T10:00:06Z</time>
      </trkpt>
      <trkpt lat="42.82912" lon="1.4341">
        <ele>2030</ele>
        <time>2020-05-22T10:00:31Z</time>
      </trkpt>
      <trkpt lat="42.82905" lon="1.43398">
        <ele>2029</ele>
        <time>2020-05-22T10:01:34Z</time>
      </trkpt>
      <trkpt lat="42.82893" lon="1.43393">
        <ele>2024</ele>
        <time>2020-05-22T10:02:46Z</time>
      </trkpt>
      <trkpt lat="42.82882" lon="1.43392">
        <ele>2017</ele>
        <time>2020-05-22T10:07:55Z</time>
      </trkpt>
      <trkpt lat="42.82878" lon="1.43403">
        <ele>2021</ele>
        <time>2020-05-22T10:08:32Z</time>
      </trkpt>
      <trkpt lat="42.8287" lon="1.43415">
        <ele>2000</ele>
        <time>2020-05-22T10:10:20Z</time>
      </trkpt>
      <trkpt lat="42.82862" lon="1.43422">
        <ele>1999</ele>
        <time>2020-05-22T10:10:44Z</time>
      </trkpt>
      <trkpt lat="42.82858" lon="1.43434">
        <ele>1997</ele>
        <time>2020-05-22T10:10:57Z</time>
      </trkpt>
      <trkpt lat="42.82851" lon="1.43442">
        <ele>1996</ele>
        <time>2020-05-22T10:11:12Z</time>
      </trkpt>
      <trkpt lat="42.82841" lon="1.43445">
        <ele>1995</ele>
        <time>2020-05-22T10:11:26Z</time>
      </trkpt>
      <trkpt lat="42.82827" lon="1.43441">
        <ele>2001</ele>
        <time>2020-05-22T10:12:03Z</time>
      </trkpt>
      <trkpt lat="42.82819" lon="1.43438">
        <ele>2002</ele>
        <time>2020-05-22T10:12:12Z</time>
      </trkpt>
      <trkpt lat="42.82809" lon="1.4344">
        <ele>1998</ele>
        <time>2020-05-22T10:12:25Z</time>
      </trkpt>
      <trkpt lat="42.82796" lon="1.43441">
        <ele>1997</ele>
        <time>2020-05-22T10:12:49Z</time>
      </trkpt>
      <trkpt lat="42.82789" lon="1.43449">
        <ele>1995</ele>
        <time>2020-05-22T10:13:04Z</time>
      </trkpt>
      <trkpt lat="42.82782" lon="1.43459">
        <ele>1995</ele>
        <time>2020-05-22T10:13:16Z</time>
      </trkpt>
      <trkpt lat="42.8278" lon="1.43472">
        <ele>1990</ele>
        <time>2020-05-22T10:13:32Z</time>
      </trkpt>
      <trkpt lat="42.82779" lon="1.43485">
        <ele>1992</ele>
        <time>2020-05-22T10:13:59Z</time>
      </trkpt>
      <trkpt lat="42.82769" lon="1.43488">
        <ele>1988</ele>
        <time>2020-05-22T10:14:18Z</time>
      </trkpt>
      <trkpt lat="42.8276" lon="1.43484">
        <ele>1984</ele>
        <time>2020-05-22T10:14:37Z</time>
      </trkpt>
      <trkpt lat="42.82751" lon="1.43479">
        <ele>1985</ele>
        <time>2020-05-22T10:14:48Z</time>
      </trkpt>
      <trkpt lat="42.82739" lon="1.43484">
        <ele>1977</ele>
        <time>2020-05-22T10:15:31Z</time>
      </trkpt>
      <trkpt lat="42.8273" lon="1.43489">
        <ele>1981</ele>
        <time>2020-05-22T10:16:12Z</time>
      </trkpt>
      <trkpt lat="42.82721" lon="1.43485">
        <ele>1982</ele>
        <time>2020-05-22T10:16:24Z</time>
      </trkpt>
      <trkpt lat="42.82712" lon="1.43482">
        <ele>1976</ele>
        <time>2020-05-22T10:16:34Z</time>
      </trkpt>
      <trkpt lat="42.82701" lon="1.43492">
        <ele>1973</ele>
        <time>2020-05-22T10:16:57Z</time>
      </trkpt>
      <trkpt lat="42.82693" lon="1.43499">
        <ele>1972</ele>
        <time>2020-05-22T10:17:12Z</time>
      </trkpt>
      <trkpt lat="42.82684" lon="1.43503">
        <ele>1970</ele>
        <time>2020-05-22T10:17:31Z</time>
      </trkpt>
      <trkpt lat="42.82677" lon="1.43515">
        <ele>1966</ele>
        <time>2020-05-22T10:17:42Z</time>
      </trkpt>
      <trkpt lat="42.8267" lon="1.43524">
        <ele>1968</ele>
        <time>2020-05-22T10:17:55Z</time>
      </trkpt>
      <trkpt lat="42.82667" lon="1.43541">
        <ele>1963</ele>
        <time>2020-05-22T10:18:52Z</time>
      </trkpt>
      <trkpt lat="42.82656" lon="1.4355">
        <ele>1958</ele>
        <time>2020-05-22T10:19:22Z</time>
      </trkpt>
      <trkpt lat="42.82643" lon="1.43557">
        <ele>1945</ele>
        <time>2020-05-22T10:19:46Z</time>
      </trkpt>
      <trkpt lat="42.82633" lon="1.43562">
        <ele>1943</ele>
        <time>2020-05-22T10:19:58Z</time>
      </trkpt>
      <trkpt lat="42.82624" lon="1.43566">
        <ele>1944</ele>
        <time>2020-05-22T10:20:10Z</time>
      </trkpt>
      <trkpt lat="42.82615" lon="1.43569">
        <ele>1950</ele>
        <time>2020-05-22T10:20:59Z</time>
      </trkpt>
      <trkpt lat="42.82607" lon="1.43576">
        <ele>1952</ele>
        <time>2020-05-22T10:21:15Z</time>
      </trkpt>
      <trkpt lat="42.82599" lon="1.43585">
        <ele>1954</ele>
        <time>2020-05-22T10:21:27Z</time>
      </trkpt>
      <trkpt lat="42.8259" lon="1.43587">
        <ele>1951</ele>
        <time>2020-05-22T10:21:42Z</time>
      </trkpt>
      <trkpt lat="42.82579" lon="1.43591">
        <ele>1952</ele>
        <time>2020-05-22T10:21:51Z</time>
      </trkpt>
      <trkpt lat="42.82569" lon="1.43596">
        <ele>1952</ele>
        <time>2020-05-22T10:22:03Z</time>
      </trkpt>
      <trkpt lat="42.8256" lon="1.43596">
        <ele>1939</ele>
        <time>2020-05-22T10:22:30Z</time>
      </trkpt>
      <trkpt lat="42.82551" lon="1.4359">
        <ele>1931</ele>
        <time>2020-05-22T10:22:51Z</time>
      </trkpt>
      <trkpt lat="42.82542" lon="1.43594">
        <ele>1929</ele>
        <time>2020-05-22T10:23:12Z</time>
      </trkpt>
      <trkpt lat="42.82533" lon="1.43591">
        <ele>1928</ele>
        <time>2020-05-22T10:23:22Z</time>
      </trkpt>
      <trkpt lat="42.82523" lon="1.43587">
        <ele>1929</ele>
        <time>2020-05-22T10:23:42Z</time>
      </trkpt>
      <trkpt lat="42.82514" lon="1.43582">
        <ele>1924</ele>
        <time>2020-05-22T10:24:02Z</time>
      </trkpt>
      <trkpt lat="42.82503" lon="1.43582">
        <ele>1928</ele>
        <time>2020-05-22T10:24:14Z</time>
      </trkpt>
      <trkpt lat="42.82493" lon="1.43571">
        <ele>1933</ele>
        <time>2020-05-22T10:25:04Z</time>
      </trkpt>
      <trkpt lat="42.82483" lon="1.43572">
        <ele>1935</ele>
        <time>2020-05-22T10:25:27Z</time>
      </trkpt>
      <trkpt lat="42.82473" lon="1.43569">
        <ele>1939</ele>
        <time>2020-05-22T10:25:37Z</time>
      </trkpt>
      <trkpt lat="42.82466" lon="1.43561">
        <ele>1937</ele>
        <time>2020-05-22T10:25:51Z</time>
      </trkpt>
      <trkpt lat="42.82455" lon="1.4355">
        <ele>1927</ele>
        <time>2020-05-22T10:26:29Z</time>
      </trkpt>
      <trkpt lat="42.82448" lon="1.43537">
        <ele>1915</ele>
        <time>2020-05-22T10:26:52Z</time>
      </trkpt>
      <trkpt lat="42.8244" lon="1.4353">
        <ele>1902</ele>
        <time>2020-05-22T10:27:33Z</time>
      </trkpt>
      <trkpt lat="42.82432" lon="1.43522">
        <ele>1896</ele>
        <time>2020-05-22T10:27:57Z</time>
      </trkpt>
      <trkpt lat="42.82426" lon="1.43512">
        <ele>1893</ele>
        <time>2020-05-22T10:28:46Z</time>
      </trkpt>
      <trkpt lat="42.82417" lon="1.43504">
        <ele>1893</ele>
        <time>2020-05-22T10:29:00Z</time>
      </trkpt>
      <trkpt lat="42.82415" lon="1.43492">
        <ele>1893</ele>
        <time>2020-05-22T10:29:19Z</time>
      </trkpt>
      <trkpt lat="42.82407" lon="1.43485">
        <ele>1894</ele>
        <time>2020-05-22T10:29:46Z</time>
      </trkpt>
      <trkpt lat="42.82406" lon="1.43472">
        <ele>1892</ele>
        <time>2020-05-22T10:30:05Z</time>
      </trkpt>
      <trkpt lat="42.82401" lon="1.4346">
        <ele>1895</ele>
        <time>2020-05-22T10:30:17Z</time>
      </trkpt>
      <trkpt lat="42.82394" lon="1.43451">
        <ele>1898</ele>
        <time>2020-05-22T10:30:30Z</time>
      </trkpt>
      <trkpt lat="42.82385" lon="1.43448">
        <ele>1899</ele>
        <time>2020-05-22T10:30:45Z</time>
      </trkpt>
      <trkpt lat="42.82381" lon="1.43436">
        <ele>1890</ele>
        <time>2020-05-22T10:31:16Z</time>
      </trkpt>
      <trkpt lat="42.82376" lon="1.43426">
        <ele>1889</ele>
        <time>2020-05-22T10:31:33Z</time>
      </trkpt>
      <trkpt lat="42.82369" lon="1.43417">
        <ele>1885</ele>
        <time>2020-05-22T10:31:50Z</time>
      </trkpt>
      <trkpt lat="42.82359" lon="1.43417">
        <ele>1883</ele>
        <time>2020-05-22T10:32:03Z</time>
      </trkpt>
      <trkpt lat="42.8236" lon="1.43405">
        <ele>1879</ele>
        <time>2020-05-22T10:32:35Z</time>
      </trkpt>
      <trkpt lat="42.82349" lon="1.43397">
        <ele>1869</ele>
        <time>2020-05-22T10:33:09Z</time>
      </trkpt>
      <trkpt lat="42.82339" lon="1.43385">
        <ele>1867</ele>
        <time>2020-05-22T10:33:34Z</time>
      </trkpt>
      <trkpt lat="42.82328" lon="1.43377">
        <ele>1856</ele>
        <time>2020-05-22T10:38:00Z</time>
      </trkpt>
      <trkpt lat="42.82321" lon="1.43362">
        <ele>1852</ele>
        <time>2020-05-22T10:39:02Z</time>
      </trkpt>
      <trkpt lat="42.82317" lon="1.43351">
        <ele>1846</ele>
        <time>2020-05-22T10:39:17Z</time>
      </trkpt>
      <trkpt lat="42.82312" lon="1.43341">
        <ele>1847</ele>
        <time>2020-05-22T10:39:41Z</time>
      </trkpt>
      <trkpt lat="42.82303" lon="1.43336">
        <ele>1844</ele>
        <time>2020-05-22T10:39:57Z</time>
      </trkpt>
      <trkpt lat="42.82297" lon="1.43326">
        <ele>1838</ele>
        <time>2020-05-22T10:40:23Z</time>
      </trkpt>
      <trkpt lat="42.8229" lon="1.43318">
        <ele>1835</ele>
        <time>2020-05-22T10:40:38Z</time>
      </trkpt>
      <trkpt lat="42.82281" lon="1.43318">
        <ele>1833</ele>
        <time>2020-05-22T10:41:08Z</time>
      </trkpt>
      <trkpt lat="42.82273" lon="1.43331">
        <ele>1827</ele>
        <time>2020-05-22T10:41:40Z</time>
      </trkpt>
      <trkpt lat="42.82263" lon="1.43332">
        <ele>1827</ele>
        <time>2020-05-22T10:42:02Z</time>
      </trkpt>
      <trkpt lat="42.82254" lon="1.43335">
        <ele>1827</ele>
        <time>2020-05-22T10:42:31Z</time>
      </trkpt>
      <trkpt lat="42.82243" lon="1.43334">
        <ele>1827</ele>
        <time>2020-05-22T10:42:49Z</time>
      </trkpt>
      <trkpt lat="42.82233" lon="1.43334">
        <ele>1819</ele>
        <time>2020-05-22T10:43:04Z</time>
      </trkpt>
      <trkpt lat="42.82224" lon="1.43333">
        <ele>1818</ele>
        <time>2020-05-22T10:43:14Z</time>
      </trkpt>
      <trkpt lat="42.82214" lon="1.43334">
        <ele>1819</ele>
        <time>2020-05-22T10:43:28Z</time>
      </trkpt>
      <trkpt lat="42.82205" lon="1.43337">
        <ele>1812</ele>
        <time>2020-05-22T10:44:58Z</time>
      </trkpt>
      <trkpt lat="42.82195" lon="1.43335">
        <ele>1811</ele>
        <time>2020-05-22T10:45:22Z</time>
      </trkpt>
      <trkpt lat="42.82187" lon="1.43343">
        <ele>1804</ele>
        <time>2020-05-22T10:45:47Z</time>
      </trkpt>
      <trkpt lat="42.82175" lon="1.43336">
        <ele>1805</ele>
        <time>2020-05-22T10:46:18Z</time>
      </trkpt>
      <trkpt lat="42.82167" lon="1.4334">
        <ele>1800</ele>
        <time>2020-05-22T10:46:44Z</time>
      </trkpt>
      <trkpt lat="42.82159" lon="1.43348">
        <ele>1795</ele>
        <time>2020-05-22T10:47:39Z</time>
      </trkpt>
      <trkpt lat="42.82157" lon="1.43361">
        <ele>1791</ele>
        <time>2020-05-22T10:47:51Z</time>
      </trkpt>
      <trkpt lat="42.82157" lon="1.43374">
        <ele>1785</ele>
        <time>2020-05-22T10:48:31Z</time>
      </trkpt>
      <trkpt lat="42.82153" lon="1.43386">
        <ele>1770</ele>
        <time>2020-05-22T10:49:52Z</time>
      </trkpt>
      <trkpt lat="42.82146" lon="1.43393">
        <ele>1765</ele>
        <time>2020-05-22T10:50:18Z</time>
      </trkpt>
      <trkpt lat="42.8214" lon="1.43404">
        <ele>1765</ele>
        <time>2020-05-22T10:50:41Z</time>
      </trkpt>
      <trkpt lat="42.82134" lon="1.43415">
        <ele>1765</ele>
        <time>2020-05-22T10:50:57Z</time>
      </trkpt>
      <trkpt lat="42.82132" lon="1.43427">
        <ele>1757</ele>
        <time>2020-05-22T10:51:33Z</time>
      </trkpt>
      <trkpt lat="42.82125" lon="1.43438">
        <ele>1755</ele>
        <time>2020-05-22T10:51:49Z</time>
      </trkpt>
      <trkpt lat="42.82122" lon="1.43451">
        <ele>1752</ele>
        <time>2020-05-22T10:52:19Z</time>
      </trkpt>
      <trkpt lat="42.82116" lon="1.43463">
        <ele>1752</ele>
        <time>2020-05-22T10:52:29Z</time>
      </trkpt>
      <trkpt lat="42.82109" lon="1.43472">
        <ele>1750</ele>
        <time>2020-05-22T10:52:46Z</time>
      </trkpt>
      <trkpt lat="42.82103" lon="1.43482">
        <ele>1749</ele>
        <time>2020-05-22T10:53:01Z</time>
      </trkpt>
      <trkpt lat="42.82101" lon="1.43496">
        <ele>1744</ele>
        <time>2020-05-22T10:53:53Z</time>
      </trkpt>
      <trkpt lat="42.82099" lon="1.43508">
        <ele>1745</ele>
        <time>2020-05-22T10:54:04Z</time>
      </trkpt>
      <trkpt lat="42.82098" lon="1.43521">
        <ele>1739</ele>
        <time>2020-05-22T10:54:14Z</time>
      </trkpt>
      <trkpt lat="42.82094" lon="1.43533">
        <ele>1739</ele>
        <time>2020-05-22T10:54:26Z</time>
      </trkpt>
      <trkpt lat="42.82092" lon="1.43546">
        <ele>1743</ele>
        <time>2020-05-22T10:54:36Z</time>
      </trkpt>
      <trkpt lat="42.82092" lon="1.43563">
        <ele>1731</ele>
        <time>2020-05-22T10:55:53Z</time>
      </trkpt>
      <trkpt lat="42.82093" lon="1.43581">
        <ele>1732</ele>
        <time>2020-05-22T10:56:21Z</time>
      </trkpt>
      <trkpt lat="42.82093" lon="1.43594">
        <ele>1726</ele>
        <time>2020-05-22T10:56:37Z</time>
      </trkpt>
      <trkpt lat="42.82096" lon="1.4361">
        <ele>1725</ele>
        <time>2020-05-22T10:56:56Z</time>
      </trkpt>
      <trkpt lat="42.82092" lon="1.43621">
        <ele>1725</ele>
        <time>2020-05-22T10:57:11Z</time>
      </trkpt>
      <trkpt lat="42.82087" lon="1.43632">
        <ele>1725</ele>
        <time>2020-05-22T10:57:21Z</time>
      </trkpt>
      <trkpt lat="42.82079" lon="1.43638">
        <ele>1724</ele>
        <time>2020-05-22T10:57:31Z</time>
      </trkpt>
      <trkpt lat="42.82076" lon="1.4365">
        <ele>1721</ele>
        <time>2020-05-22T10:57:40Z</time>
      </trkpt>
      <trkpt lat="42.82066" lon="1.43649">
        <ele>1721</ele>
        <time>2020-05-22T11:04:01Z</time>
      </trkpt>
      <trkpt lat="42.82058" lon="1.43653">
        <ele>1722</ele>
        <time>2020-05-22T11:04:14Z</time>
      </trkpt>
      <trkpt lat="42.82051" lon="1.43663">
        <ele>1719</ele>
        <time>2020-05-22T11:04:25Z</time>
      </trkpt>
      <trkpt lat="42.82047" lon="1.43676">
        <ele>1720</ele>
        <time>2020-05-22T11:04:38Z</time>
      </trkpt>
      <trkpt lat="42.82045" lon="1.4369">
        <ele>1720</ele>
        <time>2020-05-22T11:04:52Z</time>
      </trkpt>
      <trkpt lat="42.82042" lon="1.43702">
        <ele>1725</ele>
        <time>2020-05-22T11:05:05Z</time>
      </trkpt>
      <trkpt lat="42.82035" lon="1.43711">
        <ele>1722</ele>
        <time>2020-05-22T11:05:24Z</time>
      </trkpt>
      <trkpt lat="42.82026" lon="1.4372">
        <ele>1728</ele>
        <time>2020-05-22T11:05:34Z</time>
      </trkpt>
      <trkpt lat="42.82018" lon="1.43727">
        <ele>1728</ele>
        <time>2020-05-22T11:05:50Z</time>
      </trkpt>
      <trkpt lat="42.82006" lon="1.43728">
        <ele>1732</ele>
        <time>2020-05-22T11:06:16Z</time>
      </trkpt>
      <trkpt lat="42.81996" lon="1.43725">
        <ele>1735</ele>
        <time>2020-05-22T11:06:29Z</time>
      </trkpt>
      <trkpt lat="42.81987" lon="1.43725">
        <ele>1734</ele>
        <time>2020-05-22T11:06:42Z</time>
      </trkpt>
      <trkpt lat="42.81975" lon="1.43718">
        <ele>1734</ele>
        <time>2020-05-22T11:07:11Z</time>
      </trkpt>
      <trkpt lat="42.81966" lon="1.43716">
        <ele>1729</ele>
        <time>2020-05-22T11:07:24Z</time>
      </trkpt>
      <trkpt lat="42.81961" lon="1.43727">
        <ele>1728</ele>
        <time>2020-05-22T11:07:36Z</time>
      </trkpt>
      <trkpt lat="42.81954" lon="1.43735">
        <ele>1730</ele>
        <time>2020-05-22T11:07:46Z</time>
      </trkpt>
      <trkpt lat="42.81961" lon="1.43724">
        <ele>1722</ele>
        <time>2020-05-22T11:32:26Z</time>
      </trkpt>
      <trkpt lat="42.81971" lon="1.43723">
        <ele>1734</ele>
        <time>2020-05-22T11:37:28Z</time>
      </trkpt>
      <trkpt lat="42.81959" lon="1.4373">
        <ele>1735</ele>
        <time>2020-05-22T11:43:09Z</time>
      </trkpt>
      <trkpt lat="42.81954" lon="1.43715">
        <ele>1745</ele>
        <time>2020-05-22T12:06:43Z</time>
      </trkpt>
      <trkpt lat="42.81958" lon="1.43729">
        <ele>1735</ele>
        <time>2020-05-22T12:24:11Z</time>
      </trkpt>
      <trkpt lat="42.81948" lon="1.43732">
        <ele>1727</ele>
        <time>2020-05-22T12:24:35Z</time>
      </trkpt>
      <trkpt lat="42.8194" lon="1.43738">
        <ele>1722</ele>
        <time>2020-05-22T12:24:48Z</time>
      </trkpt>
      <trkpt lat="42.8193" lon="1.43741">
        <ele>1726</ele>
        <time>2020-05-22T12:25:01Z</time>
      </trkpt>
      <trkpt lat="42.81924" lon="1.43751">
        <ele>1724</ele>
        <time>2020-05-22T12:25:14Z</time>
      </trkpt>
      <trkpt lat="42.81916" lon="1.43757">
        <ele>1724</ele>
        <time>2020-05-22T12:25:30Z</time>
      </trkpt>
      <trkpt lat="42.81909" lon="1.43766">
        <ele>1724</ele>
        <time>2020-05-22T12:25:46Z</time>
      </trkpt>
      <trkpt lat="42.819" lon="1.43769">
        <ele>1721</ele>
        <time>2020-05-22T12:26:01Z</time>
      </trkpt>
      <trkpt lat="42.8189" lon="1.43769">
        <ele>1724</ele>
        <time>2020-05-22T12:26:17Z</time>
      </trkpt>
      <trkpt lat="42.81883" lon="1.43777">
        <ele>1721</ele>
        <time>2020-05-22T12:26:27Z</time>
      </trkpt>
      <trkpt lat="42.81876" lon="1.43785">
        <ele>1721</ele>
        <time>2020-05-22T12:26:43Z</time>
      </trkpt>
      <trkpt lat="42.81885" lon="1.43786">
        <ele>1721</ele>
        <time>2020-05-22T12:27:28Z</time>
      </trkpt>
      <trkpt lat="42.81889" lon="1.438">
        <ele>1720</ele>
        <time>2020-05-22T12:27:52Z</time>
      </trkpt>
      <trkpt lat="42.81879" lon="1.4381">
        <ele>1723</ele>
        <time>2020-05-22T12:28:19Z</time>
      </trkpt>
      <trkpt lat="42.81866" lon="1.43814">
        <ele>1718</ele>
        <time>2020-05-22T12:28:58Z</time>
      </trkpt>
      <trkpt lat="42.81858" lon="1.43819">
        <ele>1717</ele>
        <time>2020-05-22T12:29:15Z</time>
      </trkpt>
      <trkpt lat="42.81848" lon="1.43814">
        <ele>1718</ele>
        <time>2020-05-22T12:29:27Z</time>
      </trkpt>
      <trkpt lat="42.81836" lon="1.43807">
        <ele>1710</ele>
        <time>2020-05-22T12:29:47Z</time>
      </trkpt>
      <trkpt lat="42.81826" lon="1.43805">
        <ele>1707</ele>
        <time>2020-05-22T12:29:59Z</time>
      </trkpt>
      <trkpt lat="42.81817" lon="1.43806">
        <ele>1707</ele>
        <time>2020-05-22T12:30:08Z</time>
      </trkpt>
      <trkpt lat="42.81808" lon="1.43813">
        <ele>1702</ele>
        <time>2020-05-22T12:30:18Z</time>
      </trkpt>
      <trkpt lat="42.81799" lon="1.43816">
        <ele>1704</ele>
        <time>2020-05-22T12:30:29Z</time>
      </trkpt>
      <trkpt lat="42.8179" lon="1.43819">
        <ele>1704</ele>
        <time>2020-05-22T12:30:51Z</time>
      </trkpt>
      <trkpt lat="42.81782" lon="1.43826">
        <ele>1704</ele>
        <time>2020-05-22T12:31:06Z</time>
      </trkpt>
      <trkpt lat="42.81774" lon="1.43833">
        <ele>1699</ele>
        <time>2020-05-22T12:31:20Z</time>
      </trkpt>
      <trkpt lat="42.81766" lon="1.4384">
        <ele>1699</ele>
        <time>2020-05-22T12:31:33Z</time>
      </trkpt>
      <trkpt lat="42.81752" lon="1.43838">
        <ele>1697</ele>
        <time>2020-05-22T12:31:55Z</time>
      </trkpt>
      <trkpt lat="42.81743" lon="1.43832">
        <ele>1701</ele>
        <time>2020-05-22T12:32:09Z</time>
      </trkpt>
      <trkpt lat="42.81736" lon="1.43824">
        <ele>1706</ele>
        <time>2020-05-22T12:32:30Z</time>
      </trkpt>
      <trkpt lat="42.81727" lon="1.43821">
        <ele>1708</ele>
        <time>2020-05-22T12:32:39Z</time>
      </trkpt>
      <trkpt lat="42.81718" lon="1.43826">
        <ele>1707</ele>
        <time>2020-05-22T12:32:49Z</time>
      </trkpt>
      <trkpt lat="42.81714" lon="1.43814">
        <ele>1707</ele>
        <time>2020-05-22T12:33:02Z</time>
      </trkpt>
      <trkpt lat="42.81705" lon="1.43809">
        <ele>1714</ele>
        <time>2020-05-22T12:33:17Z</time>
      </trkpt>
      <trkpt lat="42.81696" lon="1.43804">
        <ele>1714</ele>
        <time>2020-05-22T12:33:28Z</time>
      </trkpt>
      <trkpt lat="42.81686" lon="1.43805">
        <ele>1717</ele>
        <time>2020-05-22T12:33:42Z</time>
      </trkpt>
      <trkpt lat="42.81677" lon="1.43808">
        <ele>1715</ele>
        <time>2020-05-22T12:33:58Z</time>
      </trkpt>
      <trkpt lat="42.81669" lon="1.43801">
        <ele>1717</ele>
        <time>2020-05-22T12:34:15Z</time>
      </trkpt>
      <trkpt lat="42.81661" lon="1.43793">
        <ele>1713</ele>
        <time>2020-05-22T12:34:31Z</time>
      </trkpt>
      <trkpt lat="42.81651" lon="1.43789">
        <ele>1711</ele>
        <time>2020-05-22T12:34:46Z</time>
      </trkpt>
      <trkpt lat="42.8164" lon="1.43797">
        <ele>1700</ele>
        <time>2020-05-22T12:35:11Z</time>
      </trkpt>
      <trkpt lat="42.81632" lon="1.4379">
        <ele>1701</ele>
        <time>2020-05-22T12:35:25Z</time>
      </trkpt>
      <trkpt lat="42.81625" lon="1.43781">
        <ele>1702</ele>
        <time>2020-05-22T12:35:35Z</time>
      </trkpt>
      <trkpt lat="42.81615" lon="1.43772">
        <ele>1691</ele>
        <time>2020-05-22T12:36:09Z</time>
      </trkpt>
      <trkpt lat="42.81605" lon="1.4377">
        <ele>1691</ele>
        <time>2020-05-22T12:36:23Z</time>
      </trkpt>
      <trkpt lat="42.81597" lon="1.43775">
        <ele>1686</ele>
        <time>2020-05-22T12:36:37Z</time>
      </trkpt>
      <trkpt lat="42.81587" lon="1.43779">
        <ele>1683</ele>
        <time>2020-05-22T12:36:53Z</time>
      </trkpt>
      <trkpt lat="42.81579" lon="1.43784">
        <ele>1679</ele>
        <time>2020-05-22T12:37:14Z</time>
      </trkpt>
      <trkpt lat="42.81569" lon="1.43783">
        <ele>1675</ele>
        <time>2020-05-22T12:37:35Z</time>
      </trkpt>
      <trkpt lat="42.81564" lon="1.43794">
        <ele>1677</ele>
        <time>2020-05-22T12:37:51Z</time>
      </trkpt>
      <trkpt lat="42.81556" lon="1.43789">
        <ele>1675</ele>
        <time>2020-05-22T12:38:03Z</time>
      </trkpt>
      <trkpt lat="42.81547" lon="1.43787">
        <ele>1674</ele>
        <time>2020-05-22T12:38:14Z</time>
      </trkpt>
      <trkpt lat="42.81538" lon="1.43788">
        <ele>1663</ele>
        <time>2020-05-22T12:38:35Z</time>
      </trkpt>
      <trkpt lat="42.81527" lon="1.43777">
        <ele>1666</ele>
        <time>2020-05-22T12:38:50Z</time>
      </trkpt>
      <trkpt lat="42.81519" lon="1.43768">
        <ele>1662</ele>
        <time>2020-05-22T12:39:04Z</time>
      </trkpt>
      <trkpt lat="42.8151" lon="1.43763">
        <ele>1660</ele>
        <time>2020-05-22T12:39:15Z</time>
      </trkpt>
      <trkpt lat="42.81499" lon="1.43774">
        <ele>1659</ele>
        <time>2020-05-22T12:39:37Z</time>
      </trkpt>
      <trkpt lat="42.81488" lon="1.43782">
        <ele>1654</ele>
        <time>2020-05-22T12:40:07Z</time>
      </trkpt>
      <trkpt lat="42.81479" lon="1.43789">
        <ele>1653</ele>
        <time>2020-05-22T12:40:21Z</time>
      </trkpt>
      <trkpt lat="42.81474" lon="1.43774">
        <ele>1643</ele>
        <time>2020-05-22T12:41:03Z</time>
      </trkpt>
      <trkpt lat="42.8146" lon="1.4377">
        <ele>1637</ele>
        <time>2020-05-22T12:41:30Z</time>
      </trkpt>
      <trkpt lat="42.81451" lon="1.43771">
        <ele>1631</ele>
        <time>2020-05-22T12:41:46Z</time>
      </trkpt>
      <trkpt lat="42.81439" lon="1.4377">
        <ele>1629</ele>
        <time>2020-05-22T12:42:23Z</time>
      </trkpt>
      <trkpt lat="42.81426" lon="1.43776">
        <ele>1628</ele>
        <time>2020-05-22T12:42:48Z</time>
      </trkpt>
      <trkpt lat="42.81417" lon="1.43781">
        <ele>1627</ele>
        <time>2020-05-22T12:43:01Z</time>
      </trkpt>
      <trkpt lat="42.81408" lon="1.43781">
        <ele>1622</ele>
        <time>2020-05-22T12:43:13Z</time>
      </trkpt>
      <trkpt lat="42.81399" lon="1.43785">
        <ele>1621</ele>
        <time>2020-05-22T12:43:20Z</time>
      </trkpt>
      <trkpt lat="42.8139" lon="1.43791">
        <ele>1618</ele>
        <time>2020-05-22T12:43:30Z</time>
      </trkpt>
      <trkpt lat="42.81381" lon="1.43797">
        <ele>1621</ele>
        <time>2020-05-22T12:43:39Z</time>
      </trkpt>
      <trkpt lat="42.81372" lon="1.43799">
        <ele>1618</ele>
        <time>2020-05-22T12:43:58Z</time>
      </trkpt>
      <trkpt lat="42.81363" lon="1.43803">
        <ele>1615</ele>
        <time>2020-05-22T12:44:06Z</time>
      </trkpt>
      <trkpt lat="42.81352" lon="1.4381">
        <ele>1622</ele>
        <time>2020-05-22T12:44:54Z</time>
      </trkpt>
      <trkpt lat="42.81343" lon="1.43813">
        <ele>1612</ele>
        <time>2020-05-22T12:45:45Z</time>
      </trkpt>
      <trkpt lat="42.81335" lon="1.43805">
        <ele>1602</ele>
        <time>2020-05-22T12:46:05Z</time>
      </trkpt>
      <trkpt lat="42.81328" lon="1.43798">
        <ele>1594</ele>
        <time>2020-05-22T12:46:33Z</time>
      </trkpt>
      <trkpt lat="42.81319" lon="1.43792">
        <ele>1591</ele>
        <time>2020-05-22T12:46:45Z</time>
      </trkpt>
      <trkpt lat="42.8131" lon="1.43787">
        <ele>1581</ele>
        <time>2020-05-22T12:47:05Z</time>
      </trkpt>
      <trkpt lat="42.813" lon="1.43778">
        <ele>1559</ele>
        <time>2020-05-22T12:48:00Z</time>
      </trkpt>
      <trkpt lat="42.81301" lon="1.43766">
        <ele>1552</ele>
        <time>2020-05-22T12:48:22Z</time>
      </trkpt>
      <trkpt lat="42.81298" lon="1.43755">
        <ele>1557</ele>
        <time>2020-05-22T12:48:38Z</time>
      </trkpt>
      <trkpt lat="42.81293" lon="1.43743">
        <ele>1556</ele>
        <time>2020-05-22T12:48:54Z</time>
      </trkpt>
      <trkpt lat="42.81292" lon="1.4373">
        <ele>1560</ele>
        <time>2020-05-22T12:49:09Z</time>
      </trkpt>
      <trkpt lat="42.81288" lon="1.43718">
        <ele>1563</ele>
        <time>2020-05-22T12:49:49Z</time>
      </trkpt>
      <trkpt lat="42.81282" lon="1.4373">
        <ele>1559</ele>
        <time>2020-05-22T12:51:40Z</time>
      </trkpt>
      <trkpt lat="42.81273" lon="1.43732">
        <ele>1550</ele>
        <time>2020-05-22T12:52:30Z</time>
      </trkpt>
      <trkpt lat="42.81264" lon="1.43735">
        <ele>1545</ele>
        <time>2020-05-22T12:52:45Z</time>
      </trkpt>
      <trkpt lat="42.81254" lon="1.43733">
        <ele>1543</ele>
        <time>2020-05-22T12:53:00Z</time>
      </trkpt>
      <trkpt lat="42.81243" lon="1.4372">
        <ele>1540</ele>
        <time>2020-05-22T12:53:30Z</time>
      </trkpt>
      <trkpt lat="42.8125" lon="1.43705">
        <ele>1533</ele>
        <time>2020-05-22T12:53:54Z</time>
      </trkpt>
      <trkpt lat="42.81237" lon="1.43698">
        <ele>1521</ele>
        <time>2020-05-22T12:54:36Z</time>
      </trkpt>
      <trkpt lat="42.81241" lon="1.43686">
        <ele>1517</ele>
        <time>2020-05-22T12:54:52Z</time>
      </trkpt>
      <trkpt lat="42.81238" lon="1.43673">
        <ele>1513</ele>
        <time>2020-05-22T12:55:11Z</time>
      </trkpt>
      <trkpt lat="42.81236" lon="1.43654">
        <ele>1506</ele>
        <time>2020-05-22T12:55:36Z</time>
      </trkpt>
      <trkpt lat="42.81225" lon="1.43646">
        <ele>1504</ele>
        <time>2020-05-22T12:56:05Z</time>
      </trkpt>
      <trkpt lat="42.81217" lon="1.43638">
        <ele>1506</ele>
        <time>2020-05-22T12:56:16Z</time>
      </trkpt>
      <trkpt lat="42.8122" lon="1.43622">
        <ele>1495</ele>
        <time>2020-05-22T12:56:43Z</time>
      </trkpt>
      <trkpt lat="42.81227" lon="1.43607">
        <ele>1485</ele>
        <time>2020-05-22T12:57:09Z</time>
      </trkpt>
      <trkpt lat="42.8122" lon="1.43597">
        <ele>1477</ele>
        <time>2020-05-22T12:57:34Z</time>
      </trkpt>
      <trkpt lat="42.81217" lon="1.43584">
        <ele>1474</ele>
        <time>2020-05-22T12:57:50Z</time>
      </trkpt>
      <trkpt lat="42.81214" lon="1.43573">
        <ele>1473</ele>
        <time>2020-05-22T12:58:04Z</time>
      </trkpt>
      <trkpt lat="42.81211" lon="1.43561">
        <ele>1471</ele>
        <time>2020-05-22T12:58:22Z</time>
      </trkpt>
      <trkpt lat="42.81215" lon="1.43549">
        <ele>1471</ele>
        <time>2020-05-22T12:58:37Z</time>
      </trkpt>
      <trkpt lat="42.81225" lon="1.43541">
        <ele>1462</ele>
        <time>2020-05-22T12:58:46Z</time>
      </trkpt>
      <trkpt lat="42.81229" lon="1.43529">
        <ele>1462</ele>
        <time>2020-05-22T12:58:58Z</time>
      </trkpt>
      <trkpt lat="42.81235" lon="1.4352">
        <ele>1459</ele>
        <time>2020-05-22T12:59:07Z</time>
      </trkpt>
      <trkpt lat="42.81238" lon="1.43506">
        <ele>1451</ele>
        <time>2020-05-22T12:59:18Z</time>
      </trkpt>
      <trkpt lat="42.81236" lon="1.43493">
        <ele>1451</ele>
        <time>2020-05-22T12:59:29Z</time>
      </trkpt>
      <trkpt lat="42.8124" lon="1.4348">
        <ele>1449</ele>
        <time>2020-05-22T12:59:43Z</time>
      </trkpt>
      <trkpt lat="42.81243" lon="1.43468">
        <ele>1447</ele>
        <time>2020-05-22T12:59:54Z</time>
      </trkpt>
      <trkpt lat="42.81243" lon="1.43454">
        <ele>1451</ele>
        <time>2020-05-22T13:00:06Z</time>
      </trkpt>
      <trkpt lat="42.81243" lon="1.43436">
        <ele>1443</ele>
        <time>2020-05-22T13:00:29Z</time>
      </trkpt>
      <trkpt lat="42.81238" lon="1.43425">
        <ele>1439</ele>
        <time>2020-05-22T13:01:02Z</time>
      </trkpt>
      <trkpt lat="42.81228" lon="1.43428">
        <ele>1438</ele>
        <time>2020-05-22T13:02:07Z</time>
      </trkpt>
      <trkpt lat="42.81219" lon="1.43432">
        <ele>1437</ele>
        <time>2020-05-22T13:02:40Z</time>
      </trkpt>
      <trkpt lat="42.81207" lon="1.43428">
        <ele>1441</ele>
        <time>2020-05-22T13:03:01Z</time>
      </trkpt>
      <trkpt lat="42.81207" lon="1.43416">
        <ele>1438</ele>
        <time>2020-05-22T13:03:18Z</time>
      </trkpt>
      <trkpt lat="42.81203" lon="1.43404">
        <ele>1441</ele>
        <time>2020-05-22T13:03:30Z</time>
      </trkpt>
      <trkpt lat="42.81194" lon="1.43396">
        <ele>1441</ele>
        <time>2020-05-22T13:03:40Z</time>
      </trkpt>
      <trkpt lat="42.81189" lon="1.43385">
        <ele>1436</ele>
        <time>2020-05-22T13:03:48Z</time>
      </trkpt>
      <trkpt lat="42.81182" lon="1.43375">
        <ele>1435</ele>
        <time>2020-05-22T13:03:57Z</time>
      </trkpt>
      <trkpt lat="42.81177" lon="1.43364">
        <ele>1419</ele>
        <time>2020-05-22T13:07:48Z</time>
      </trkpt>
      <trkpt lat="42.81171" lon="1.43355">
        <ele>1417</ele>
        <time>2020-05-22T13:07:58Z</time>
      </trkpt>
      <trkpt lat="42.81166" lon="1.43342">
        <ele>1418</ele>
        <time>2020-05-22T13:08:07Z</time>
      </trkpt>
      <trkpt lat="42.81167" lon="1.43329">
        <ele>1417</ele>
        <time>2020-05-22T13:08:18Z</time>
      </trkpt>
      <trkpt lat="42.81168" lon="1.43316">
        <ele>1417</ele>
        <time>2020-05-22T13:08:29Z</time>
      </trkpt>
      <trkpt lat="42.81161" lon="1.43307">
        <ele>1416</ele>
        <time>2020-05-22T13:08:39Z</time>
      </trkpt>
      <trkpt lat="42.81157" lon="1.43294">
        <ele>1418</ele>
        <time>2020-05-22T13:08:51Z</time>
      </trkpt>
      <trkpt lat="42.81157" lon="1.4328">
        <ele>1413</ele>
        <time>2020-05-22T13:09:01Z</time>
      </trkpt>
      <trkpt lat="42.81155" lon="1.43266">
        <ele>1414</ele>
        <time>2020-05-22T13:09:14Z</time>
      </trkpt>
      <trkpt lat="42.81148" lon="1.43256">
        <ele>1415</ele>
        <time>2020-05-22T13:09:21Z</time>
      </trkpt>
      <trkpt lat="42.81142" lon="1.43245">
        <ele>1417</ele>
        <time>2020-05-22T13:09:28Z</time>
      </trkpt>
      <trkpt lat="42.81135" lon="1.43236">
        <ele>1417</ele>
        <time>2020-05-22T13:09:36Z</time>
      </trkpt>
      <trkpt lat="42.81128" lon="1.43226">
        <ele>1422</ele>
        <time>2020-05-22T13:09:43Z</time>
      </trkpt>
      <trkpt lat="42.81121" lon="1.43217">
        <ele>1424</ele>
        <time>2020-05-22T13:09:53Z</time>
      </trkpt>
      <trkpt lat="42.81118" lon="1.43203">
        <ele>1422</ele>
        <time>2020-05-22T13:10:03Z</time>
      </trkpt>
      <trkpt lat="42.81116" lon="1.4319">
        <ele>1418</ele>
        <time>2020-05-22T13:10:13Z</time>
      </trkpt>
      <trkpt lat="42.81114" lon="1.43178">
        <ele>1413</ele>
        <time>2020-05-22T13:10:22Z</time>
      </trkpt>
      <trkpt lat="42.81114" lon="1.43164">
        <ele>1410</ele>
        <time>2020-05-22T13:10:32Z</time>
      </trkpt>
      <trkpt lat="42.8111" lon="1.43151">
        <ele>1412</ele>
        <time>2020-05-22T13:10:41Z</time>
      </trkpt>
      <trkpt lat="42.81111" lon="1.43139">
        <ele>1408</ele>
        <time>2020-05-22T13:10:53Z</time>
      </trkpt>
      <trkpt lat="42.81107" lon="1.43125">
        <ele>1407</ele>
        <time>2020-05-22T13:11:03Z</time>
      </trkpt>
      <trkpt lat="42.81109" lon="1.43113">
        <ele>1405</ele>
        <time>2020-05-22T13:11:12Z</time>
      </trkpt>
      <trkpt lat="42.81104" lon="1.43102">
        <ele>1403</ele>
        <time>2020-05-22T13:11:22Z</time>
      </trkpt>
      <trkpt lat="42.81101" lon="1.43088">
        <ele>1407</ele>
        <time>2020-05-22T13:11:31Z</time>
      </trkpt>
      <trkpt lat="42.81099" lon="1.43076">
        <ele>1407</ele>
        <time>2020-05-22T13:11:39Z</time>
      </trkpt>
      <trkpt lat="42.81098" lon="1.43062">
        <ele>1405</ele>
        <time>2020-05-22T13:11:51Z</time>
      </trkpt>
      <trkpt lat="42.81102" lon="1.4305">
        <ele>1407</ele>
        <time>2020-05-22T13:12:04Z</time>
      </trkpt>
      <trkpt lat="42.811" lon="1.43033">
        <ele>1404</ele>
        <time>2020-05-22T13:12:21Z</time>
      </trkpt>
      <trkpt lat="42.81096" lon="1.43019">
        <ele>1405</ele>
        <time>2020-05-22T13:12:30Z</time>
      </trkpt>
      <trkpt lat="42.81089" lon="1.43009">
        <ele>1405</ele>
        <time>2020-05-22T13:12:38Z</time>
      </trkpt>
      <trkpt lat="42.81084" lon="1.42995">
        <ele>1402</ele>
        <time>2020-05-22T13:12:47Z</time>
      </trkpt>
      <trkpt lat="42.8108" lon="1.42983">
        <ele>1403</ele>
        <time>2020-05-22T13:12:56Z</time>
      </trkpt>
      <trkpt lat="42.81078" lon="1.4297">
        <ele>1407</ele>
        <time>2020-05-22T13:13:04Z</time>
      </trkpt>
      <trkpt lat="42.81079" lon="1.42956">
        <ele>1408</ele>
        <time>2020-05-22T13:13:16Z</time>
      </trkpt>
      <trkpt lat="42.81073" lon="1.42944">
        <ele>1411</ele>
        <time>2020-05-22T13:13:27Z</time>
      </trkpt>
      <trkpt lat="42.8107" lon="1.42931">
        <ele>1408</ele>
        <time>2020-05-22T13:13:39Z</time>
      </trkpt>
      <trkpt lat="42.8107" lon="1.42918">
        <ele>1405</ele>
        <time>2020-05-22T13:13:50Z</time>
      </trkpt>
      <trkpt lat="42.81068" lon="1.42905">
        <ele>1408</ele>
        <time>2020-05-22T13:14:01Z</time>
      </trkpt>
      <trkpt lat="42.81067" lon="1.42891">
        <ele>1406</ele>
        <time>2020-05-22T13:14:11Z</time>
      </trkpt>
      <trkpt lat="42.81067" lon="1.42878">
        <ele>1407</ele>
        <time>2020-05-22T13:14:25Z</time>
      </trkpt>
      <trkpt lat="42.81066" lon="1.42865">
        <ele>1410</ele>
        <time>2020-05-22T13:14:44Z</time>
      </trkpt>
      <trkpt lat="42.81066" lon="1.42853">
        <ele>1412</ele>
        <time>2020-05-22T13:15:06Z</time>
      </trkpt>
      <trkpt lat="42.81067" lon="1.4284">
        <ele>1415</ele>
        <time>2020-05-22T13:15:25Z</time>
      </trkpt>
      <trkpt lat="42.81069" lon="1.42826">
        <ele>1409</ele>
        <time>2020-05-22T13:15:39Z</time>
      </trkpt>
      <trkpt lat="42.81065" lon="1.42813">
        <ele>1419</ele>
        <time>2020-05-22T13:15:49Z</time>
      </trkpt>
      <trkpt lat="42.81063" lon="1.42797">
        <ele>1421</ele>
        <time>2020-05-22T13:16:08Z</time>
      </trkpt>
      <trkpt lat="42.81056" lon="1.42788">
        <ele>1425</ele>
        <time>2020-05-22T13:16:20Z</time>
      </trkpt>
      <trkpt lat="42.81058" lon="1.42771">
        <ele>1428</ele>
        <time>2020-05-22T13:17:28Z</time>
      </trkpt>
      <trkpt lat="42.81056" lon="1.42759">
        <ele>1428</ele>
        <time>2020-05-22T13:17:48Z</time>
      </trkpt>
      <trkpt lat="42.81053" lon="1.42746">
        <ele>1430</ele>
        <time>2020-05-22T13:18:02Z</time>
      </trkpt>
      <trkpt lat="42.81051" lon="1.42734">
        <ele>1429</ele>
        <time>2020-05-22T13:18:34Z</time>
      </trkpt>
      <trkpt lat="42.81045" lon="1.42724">
        <ele>1429</ele>
        <time>2020-05-22T13:18:52Z</time>
      </trkpt>
      <trkpt lat="42.81039" lon="1.42707">
        <ele>1432</ele>
        <time>2020-05-22T13:19:26Z</time>
      </trkpt>
      <trkpt lat="42.81035" lon="1.42695">
        <ele>1437</ele>
        <time>2020-05-22T13:19:44Z</time>
      </trkpt>
      <trkpt lat="42.81028" lon="1.42687">
        <ele>1440</ele>
        <time>2020-05-22T13:19:57Z</time>
      </trkpt>
      <trkpt lat="42.81019" lon="1.42681">
        <ele>1444</ele>
        <time>2020-05-22T13:20:11Z</time>
      </trkpt>
      <trkpt lat="42.8101" lon="1.42677">
        <ele>1443</ele>
        <time>2020-05-22T13:20:20Z</time>
      </trkpt>
      <trkpt lat="42.80997" lon="1.42672">
        <ele>1444</ele>
        <time>2020-05-22T13:20:51Z</time>
      </trkpt>
      <trkpt lat="42.80991" lon="1.42661">
        <ele>1448</ele>
        <time>2020-05-22T13:21:20Z</time>
      </trkpt>
      <trkpt lat="42.80988" lon="1.42649">
        <ele>1446</ele>
        <time>2020-05-22T13:21:48Z</time>
      </trkpt>
      <trkpt lat="42.80985" lon="1.42636">
        <ele>1454</ele>
        <time>2020-05-22T13:21:55Z</time>
      </trkpt>
      <trkpt lat="42.80988" lon="1.42625">
        <ele>1455</ele>
        <time>2020-05-22T13:22:08Z</time>
      </trkpt>
      <trkpt lat="42.80988" lon="1.4261">
        <ele>1459</ele>
        <time>2020-05-22T13:22:20Z</time>
      </trkpt>
      <trkpt lat="42.80989" lon="1.42593">
        <ele>1464</ele>
        <time>2020-05-22T13:22:39Z</time>
      </trkpt>
      <trkpt lat="42.80992" lon="1.4258">
        <ele>1466</ele>
        <time>2020-05-22T13:22:50Z</time>
      </trkpt>
      <trkpt lat="42.80997" lon="1.42568">
        <ele>1471</ele>
        <time>2020-05-22T13:23:07Z</time>
      </trkpt>
      <trkpt lat="42.81006" lon="1.4256">
        <ele>1473</ele>
        <time>2020-05-22T13:23:22Z</time>
      </trkpt>
      <trkpt lat="42.81013" lon="1.42551">
        <ele>1479</ele>
        <time>2020-05-22T13:23:41Z</time>
      </trkpt>
      <trkpt lat="42.81019" lon="1.42541">
        <ele>1480</ele>
        <time>2020-05-22T13:23:55Z</time>
      </trkpt>
      <trkpt lat="42.81025" lon="1.4253">
        <ele>1478</ele>
        <time>2020-05-22T13:24:09Z</time>
      </trkpt>
      <trkpt lat="42.8103" lon="1.42519">
        <ele>1479</ele>
        <time>2020-05-22T13:24:20Z</time>
      </trkpt>
      <trkpt lat="42.81036" lon="1.42508">
        <ele>1476</ele>
        <time>2020-05-22T13:24:30Z</time>
      </trkpt>
      <trkpt lat="42.81041" lon="1.42498">
        <ele>1473</ele>
        <time>2020-05-22T13:24:38Z</time>
      </trkpt>
      <trkpt lat="42.81044" lon="1.42486">
        <ele>1482</ele>
        <time>2020-05-22T13:24:49Z</time>
      </trkpt>
      <trkpt lat="42.8105" lon="1.42476">
        <ele>1481</ele>
        <time>2020-05-22T13:25:01Z</time>
      </trkpt>
      <trkpt lat="42.81053" lon="1.42463">
        <ele>1475</ele>
        <time>2020-05-22T13:25:12Z</time>
      </trkpt>
      <trkpt lat="42.81052" lon="1.4245">
        <ele>1474</ele>
        <time>2020-05-22T13:25:21Z</time>
      </trkpt>
      <trkpt lat="42.81049" lon="1.42438">
        <ele>1475</ele>
        <time>2020-05-22T13:25:37Z</time>
      </trkpt>
      <trkpt lat="42.81046" lon="1.42423">
        <ele>1480</ele>
        <time>2020-05-22T13:25:54Z</time>
      </trkpt>
      <trkpt lat="42.81045" lon="1.42409">
        <ele>1477</ele>
        <time>2020-05-22T13:26:05Z</time>
      </trkpt>
      <trkpt lat="42.81046" lon="1.42396">
        <ele>1483</ele>
        <time>2020-05-22T13:26:21Z</time>
      </trkpt>
      <trkpt lat="42.81046" lon="1.42383">
        <ele>1480</ele>
        <time>2020-05-22T13:26:31Z</time>
      </trkpt>
      <trkpt lat="42.81043" lon="1.42371">
        <ele>1476</ele>
        <time>2020-05-22T13:26:40Z</time>
      </trkpt>
      <trkpt lat="42.81041" lon="1.42359">
        <ele>1477</ele>
        <time>2020-05-22T13:26:51Z</time>
      </trkpt>
      <trkpt lat="42.8104" lon="1.42347">
        <ele>1480</ele>
        <time>2020-05-22T13:27:08Z</time>
      </trkpt>
      <trkpt lat="42.81034" lon="1.42337">
        <ele>1486</ele>
        <time>2020-05-22T13:27:27Z</time>
      </trkpt>
      <trkpt lat="42.81028" lon="1.42325">
        <ele>1488</ele>
        <time>2020-05-22T13:27:49Z</time>
      </trkpt>
      <trkpt lat="42.81025" lon="1.42313">
        <ele>1495</ele>
        <time>2020-05-22T13:28:15Z</time>
      </trkpt>
      <trkpt lat="42.81013" lon="1.42303">
        <ele>1494</ele>
        <time>2020-05-22T13:28:39Z</time>
      </trkpt>
      <trkpt lat="42.81004" lon="1.42299">
        <ele>1499</ele>
        <time>2020-05-22T13:29:08Z</time>
      </trkpt>
      <trkpt lat="42.81" lon="1.42287">
        <ele>1501</ele>
        <time>2020-05-22T13:29:39Z</time>
      </trkpt>
      <trkpt lat="42.80989" lon="1.4228">
        <ele>1501</ele>
        <time>2020-05-22T13:30:34Z</time>
      </trkpt>
      <trkpt lat="42.8098" lon="1.42267">
        <ele>1510</ele>
        <time>2020-05-22T13:31:41Z</time>
      </trkpt>
      <trkpt lat="42.80976" lon="1.42256">
        <ele>1512</ele>
        <time>2020-05-22T13:31:55Z</time>
      </trkpt>
      <trkpt lat="42.80967" lon="1.42253">
        <ele>1514</ele>
        <time>2020-05-22T13:32:21Z</time>
      </trkpt>
      <trkpt lat="42.80958" lon="1.42251">
        <ele>1518</ele>
        <time>2020-05-22T13:32:34Z</time>
      </trkpt>
      <trkpt lat="42.80948" lon="1.42248">
        <ele>1520</ele>
        <time>2020-05-22T13:32:44Z</time>
      </trkpt>
      <trkpt lat="42.80938" lon="1.42244">
        <ele>1521</ele>
        <time>2020-05-22T13:32:58Z</time>
      </trkpt>
      <trkpt lat="42.8093" lon="1.42237">
        <ele>1523</ele>
        <time>2020-05-22T13:33:18Z</time>
      </trkpt>
      <trkpt lat="42.80922" lon="1.42229">
        <ele>1528</ele>
        <time>2020-05-22T13:33:31Z</time>
      </trkpt>
      <trkpt lat="42.80916" lon="1.42218">
        <ele>1527</ele>
        <time>2020-05-22T13:33:55Z</time>
      </trkpt>
      <trkpt lat="42.80908" lon="1.42202">
        <ele>1530</ele>
        <time>2020-05-22T13:34:18Z</time>
      </trkpt>
      <trkpt lat="42.80905" lon="1.42188">
        <ele>1527</ele>
        <time>2020-05-22T13:34:39Z</time>
      </trkpt>
      <trkpt lat="42.80903" lon="1.42176">
        <ele>1528</ele>
        <time>2020-05-22T13:34:56Z</time>
      </trkpt>
      <trkpt lat="42.80898" lon="1.42165">
        <ele>1538</ele>
        <time>2020-05-22T13:35:25Z</time>
      </trkpt>
      <trkpt lat="42.80897" lon="1.42152">
        <ele>1539</ele>
        <time>2020-05-22T13:35:39Z</time>
      </trkpt>
      <trkpt lat="42.80897" lon="1.42139">
        <ele>1538</ele>
        <time>2020-05-22T13:35:52Z</time>
      </trkpt>
      <trkpt lat="42.80889" lon="1.42131">
        <ele>1546</ele>
        <time>2020-05-22T13:37:07Z</time>
      </trkpt>
      <trkpt lat="42.80881" lon="1.42123">
        <ele>1550</ele>
        <time>2020-05-22T13:37:17Z</time>
      </trkpt>
      <trkpt lat="42.80876" lon="1.42113">
        <ele>1549</ele>
        <time>2020-05-22T13:37:27Z</time>
      </trkpt>
      <trkpt lat="42.80871" lon="1.42096">
        <ele>1555</ele>
        <time>2020-05-22T13:37:54Z</time>
      </trkpt>
      <trkpt lat="42.80874" lon="1.42084">
        <ele>1555</ele>
        <time>2020-05-22T13:38:07Z</time>
      </trkpt>
      <trkpt lat="42.80878" lon="1.42072">
        <ele>1559</ele>
        <time>2020-05-22T13:38:25Z</time>
      </trkpt>
      <trkpt lat="42.80877" lon="1.42058">
        <ele>1557</ele>
        <time>2020-05-22T13:38:39Z</time>
      </trkpt>
      <trkpt lat="42.8088" lon="1.42046">
        <ele>1555</ele>
        <time>2020-05-22T13:38:51Z</time>
      </trkpt>
      <trkpt lat="42.80882" lon="1.42033">
        <ele>1553</ele>
        <time>2020-05-22T13:39:02Z</time>
      </trkpt>
      <trkpt lat="42.80885" lon="1.4202">
        <ele>1555</ele>
        <time>2020-05-22T13:39:13Z</time>
      </trkpt>
      <trkpt lat="42.80887" lon="1.42006">
        <ele>1554</ele>
        <time>2020-05-22T13:39:25Z</time>
      </trkpt>
      <trkpt lat="42.80891" lon="1.41995">
        <ele>1552</ele>
        <time>2020-05-22T13:39:37Z</time>
      </trkpt>
      <trkpt lat="42.80896" lon="1.41984">
        <ele>1554</ele>
        <time>2020-05-22T13:39:57Z</time>
      </trkpt>
      <trkpt lat="42.80899" lon="1.41971">
        <ele>1555</ele>
        <time>2020-05-22T13:40:05Z</time>
      </trkpt>
      <trkpt lat="42.80899" lon="1.41958">
        <ele>1558</ele>
        <time>2020-05-22T13:40:14Z</time>
      </trkpt>
      <trkpt lat="42.80897" lon="1.41946">
        <ele>1557</ele>
        <time>2020-05-22T13:40:25Z</time>
      </trkpt>
      <trkpt lat="42.80899" lon="1.41933">
        <ele>1557</ele>
        <time>2020-05-22T13:40:33Z</time>
      </trkpt>
      <trkpt lat="42.809" lon="1.4192">
        <ele>1559</ele>
        <time>2020-05-22T13:40:42Z</time>
      </trkpt>
      <trkpt lat="42.80904" lon="1.41907">
        <ele>1557</ele>
        <time>2020-05-22T13:40:53Z</time>
      </trkpt>
      <trkpt lat="42.80908" lon="1.41896">
        <ele>1556</ele>
        <time>2020-05-22T13:41:03Z</time>
      </trkpt>
      <trkpt lat="42.80906" lon="1.41882">
        <ele>1555</ele>
        <time>2020-05-22T13:41:15Z</time>
      </trkpt>
      <trkpt lat="42.80905" lon="1.41869">
        <ele>1561</ele>
        <time>2020-05-22T13:41:28Z</time>
      </trkpt>
      <trkpt lat="42.80906" lon="1.41856">
        <ele>1565</ele>
        <time>2020-05-22T13:41:40Z</time>
      </trkpt>
      <trkpt lat="42.80908" lon="1.41843">
        <ele>1562</ele>
        <time>2020-05-22T13:41:49Z</time>
      </trkpt>
      <trkpt lat="42.80909" lon="1.41824">
        <ele>1559</ele>
        <time>2020-05-22T13:42:03Z</time>
      </trkpt>
      <trkpt lat="42.80914" lon="1.41812">
        <ele>1558</ele>
        <time>2020-05-22T13:42:10Z</time>
      </trkpt>
      <trkpt lat="42.80909" lon="1.418">
        <ele>1559</ele>
        <time>2020-05-22T13:42:21Z</time>
      </trkpt>
      <trkpt lat="42.80907" lon="1.41788">
        <ele>1561</ele>
        <time>2020-05-22T13:42:31Z</time>
      </trkpt>
      <trkpt lat="42.80905" lon="1.41775">
        <ele>1561</ele>
        <time>2020-05-22T13:42:42Z</time>
      </trkpt>
      <trkpt lat="42.80905" lon="1.41762">
        <ele>1562</ele>
        <time>2020-05-22T13:42:53Z</time>
      </trkpt>
      <trkpt lat="42.80907" lon="1.4175">
        <ele>1563</ele>
        <time>2020-05-22T13:43:06Z</time>
      </trkpt>
      <trkpt lat="42.80907" lon="1.41737">
        <ele>1565</ele>
        <time>2020-05-22T13:43:20Z</time>
      </trkpt>
      <trkpt lat="42.80907" lon="1.41723">
        <ele>1564</ele>
        <time>2020-05-22T13:43:36Z</time>
      </trkpt>
      <trkpt lat="42.80911" lon="1.41712">
        <ele>1561</ele>
        <time>2020-05-22T13:43:45Z</time>
      </trkpt>
      <trkpt lat="42.80913" lon="1.41697">
        <ele>1566</ele>
        <time>2020-05-22T13:44:12Z</time>
      </trkpt>
      <trkpt lat="42.80909" lon="1.41685">
        <ele>1566</ele>
        <time>2020-05-22T13:44:35Z</time>
      </trkpt>
      <trkpt lat="42.80913" lon="1.41673">
        <ele>1568</ele>
        <time>2020-05-22T13:44:54Z</time>
      </trkpt>
      <trkpt lat="42.80908" lon="1.41658">
        <ele>1569</ele>
        <time>2020-05-22T13:45:11Z</time>
      </trkpt>
      <trkpt lat="42.80914" lon="1.41648">
        <ele>1566</ele>
        <time>2020-05-22T13:45:28Z</time>
      </trkpt>
      <trkpt lat="42.80908" lon="1.41639">
        <ele>1556</ele>
        <time>2020-05-22T13:45:52Z</time>
      </trkpt>
      <trkpt lat="42.80908" lon="1.41625">
        <ele>1559</ele>
        <time>2020-05-22T13:46:14Z</time>
      </trkpt>
      <trkpt lat="42.80898" lon="1.41628">
        <ele>1556</ele>
        <time>2020-05-22T13:46:35Z</time>
      </trkpt>
      <trkpt lat="42.8089" lon="1.41621">
        <ele>1558</ele>
        <time>2020-05-22T13:46:45Z</time>
      </trkpt>
      <trkpt lat="42.8088" lon="1.41619">
        <ele>1560</ele>
        <time>2020-05-22T13:46:56Z</time>
      </trkpt>
      <trkpt lat="42.80876" lon="1.41607">
        <ele>1566</ele>
        <time>2020-05-22T13:47:08Z</time>
      </trkpt>
      <trkpt lat="42.80871" lon="1.41596">
        <ele>1566</ele>
        <time>2020-05-22T13:47:22Z</time>
      </trkpt>
      <trkpt lat="42.80865" lon="1.41586">
        <ele>1568</ele>
        <time>2020-05-22T13:47:38Z</time>
      </trkpt>
      <trkpt lat="42.80859" lon="1.41575">
        <ele>1568</ele>
        <time>2020-05-22T13:47:48Z</time>
      </trkpt>
      <trkpt lat="42.80854" lon="1.41563">
        <ele>1569</ele>
        <time>2020-05-22T13:47:58Z</time>
      </trkpt>
      <trkpt lat="42.8085" lon="1.41552">
        <ele>1569</ele>
        <time>2020-05-22T13:48:07Z</time>
      </trkpt>
      <trkpt lat="42.80843" lon="1.41543">
        <ele>1570</ele>
        <time>2020-05-22T13:48:15Z</time>
      </trkpt>
      <trkpt lat="42.80839" lon="1.41531">
        <ele>1568</ele>
        <time>2020-05-22T13:48:26Z</time>
      </trkpt>
      <trkpt lat="42.80834" lon="1.41519">
        <ele>1566</ele>
        <time>2020-05-22T13:48:36Z</time>
      </trkpt>
      <trkpt lat="42.80828" lon="1.41508">
        <ele>1562</ele>
        <time>2020-05-22T13:48:45Z</time>
      </trkpt>
      <trkpt lat="42.80822" lon="1.41497">
        <ele>1562</ele>
        <time>2020-05-22T13:48:55Z</time>
      </trkpt>
      <trkpt lat="42.80814" lon="1.41488">
        <ele>1563</ele>
        <time>2020-05-22T13:49:05Z</time>
      </trkpt>
      <trkpt lat="42.8081" lon="1.41477">
        <ele>1562</ele>
        <time>2020-05-22T13:49:16Z</time>
      </trkpt>
      <trkpt lat="42.80804" lon="1.41466">
        <ele>1561</ele>
        <time>2020-05-22T13:49:25Z</time>
      </trkpt>
      <trkpt lat="42.80797" lon="1.41458">
        <ele>1558</ele>
        <time>2020-05-22T13:49:33Z</time>
      </trkpt>
      <trkpt lat="42.80791" lon="1.41447">
        <ele>1557</ele>
        <time>2020-05-22T13:49:42Z</time>
      </trkpt>
      <trkpt lat="42.80785" lon="1.41437">
        <ele>1557</ele>
        <time>2020-05-22T13:49:49Z</time>
      </trkpt>
      <trkpt lat="42.80778" lon="1.41424">
        <ele>1556</ele>
        <time>2020-05-22T13:49:57Z</time>
      </trkpt>
      <trkpt lat="42.80772" lon="1.41414">
        <ele>1556</ele>
        <time>2020-05-22T13:50:05Z</time>
      </trkpt>
      <trkpt lat="42.80767" lon="1.41403">
        <ele>1555</ele>
        <time>2020-05-22T13:50:15Z</time>
      </trkpt>
      <trkpt lat="42.8076" lon="1.41392">
        <ele>1551</ele>
        <time>2020-05-22T13:50:25Z</time>
      </trkpt>
      <trkpt lat="42.8075" lon="1.41385">
        <ele>1548</ele>
        <time>2020-05-22T13:50:31Z</time>
      </trkpt>
      <trkpt lat="42.80741" lon="1.4137">
        <ele>1545</ele>
        <time>2020-05-22T13:50:44Z</time>
      </trkpt>
      <trkpt lat="42.80735" lon="1.41359">
        <ele>1547</ele>
        <time>2020-05-22T13:50:51Z</time>
      </trkpt>
      <trkpt lat="42.8073" lon="1.41346">
        <ele>1548</ele>
        <time>2020-05-22T13:50:59Z</time>
      </trkpt>
      <trkpt lat="42.80728" lon="1.41334">
        <ele>1547</ele>
        <time>2020-05-22T13:51:10Z</time>
      </trkpt>
      <trkpt lat="42.80722" lon="1.41323">
        <ele>1545</ele>
        <time>2020-05-22T13:51:20Z</time>
      </trkpt>
      <trkpt lat="42.80721" lon="1.41309">
        <ele>1543</ele>
        <time>2020-05-22T13:51:31Z</time>
      </trkpt>
      <trkpt lat="42.80716" lon="1.41298">
        <ele>1545</ele>
        <time>2020-05-22T13:51:38Z</time>
      </trkpt>
      <trkpt lat="42.80713" lon="1.41285">
        <ele>1547</ele>
        <time>2020-05-22T13:51:47Z</time>
      </trkpt>
      <trkpt lat="42.80712" lon="1.41271">
        <ele>1543</ele>
        <time>2020-05-22T13:51:56Z</time>
      </trkpt>
      <trkpt lat="42.80708" lon="1.41259">
        <ele>1532</ele>
        <time>2020-05-22T13:52:08Z</time>
      </trkpt>
      <trkpt lat="42.80701" lon="1.41248">
        <ele>1529</ele>
        <time>2020-05-22T13:52:15Z</time>
      </trkpt>
      <trkpt lat="42.80696" lon="1.41237">
        <ele>1526</ele>
        <time>2020-05-22T13:52:24Z</time>
      </trkpt>
      <trkpt lat="42.80694" lon="1.41224">
        <ele>1524</ele>
        <time>2020-05-22T13:52:35Z</time>
      </trkpt>
      <trkpt lat="42.80684" lon="1.41213">
        <ele>1524</ele>
        <time>2020-05-22T13:52:45Z</time>
      </trkpt>
      <trkpt lat="42.80676" lon="1.41207">
        <ele>1524</ele>
        <time>2020-05-22T13:52:52Z</time>
      </trkpt>
      <trkpt lat="42.80667" lon="1.412">
        <ele>1525</ele>
        <time>2020-05-22T13:53:02Z</time>
      </trkpt>
      <trkpt lat="42.80664" lon="1.41187">
        <ele>1524</ele>
        <time>2020-05-22T13:53:10Z</time>
      </trkpt>
      <trkpt lat="42.80658" lon="1.41178">
        <ele>1521</ele>
        <time>2020-05-22T13:53:20Z</time>
      </trkpt>
      <trkpt lat="42.8065" lon="1.4117">
        <ele>1520</ele>
        <time>2020-05-22T13:53:29Z</time>
      </trkpt>
      <trkpt lat="42.80643" lon="1.4116">
        <ele>1516</ele>
        <time>2020-05-22T13:53:39Z</time>
      </trkpt>
      <trkpt lat="42.8064" lon="1.41148">
        <ele>1516</ele>
        <time>2020-05-22T13:53:48Z</time>
      </trkpt>
      <trkpt lat="42.80638" lon="1.41136">
        <ele>1516</ele>
        <time>2020-05-22T13:54:50Z</time>
      </trkpt>
    </trkseg>
  </trk>
</gpx>